<?xml version="1.0" encoding="UTF-8" standalone="no" ?>
<gpx xmlns="http://www.topografix.com/GPX/1/1" xmlns:xsi="http://www.w3.org/2001/XMLSchema-instance" xsi:schemaLocation="http://www.topografix.com/GPX/1/1 http://www.topografix.com/GPX/1/1/gpx.xsd" version="1.1" creator="VisuGPX - https://www.visugpx.com">
  <metadata>
    <name>Boucle Étang du Roi</name>
    <desc><![CDATA[Une belle petite boucle, autour de l\'étang, pour revenir par les terrains sableux.]]></desc>
  </metadata>
  <trk>
    <name><![CDATA[Saint-Léger-en-Yvelines Autre]]></name>
    <trkseg>
      <trkpt lat="48.70663" lon="1.75591">
        <ele>177.19999694824</ele>
        <time>2015-01-25T10:29:03.000Z</time>
      </trkpt>
      <trkpt lat="48.70661" lon="1.75598">
        <ele>177.39999389648</ele>
        <time>2015-01-25T10:29:04.000Z</time>
      </trkpt>
      <trkpt lat="48.70661" lon="1.75598">
        <ele>177.39999389648</ele>
        <time>2015-01-25T10:29:04.000Z</time>
      </trkpt>
      <trkpt lat="48.70654" lon="1.7561">
        <ele>178.19999694824</ele>
        <time>2015-01-25T10:29:10.000Z</time>
      </trkpt>
      <trkpt lat="48.70651" lon="1.75618">
        <ele>178.39999389648</ele>
        <time>2015-01-25T10:29:18.000Z</time>
      </trkpt>
      <trkpt lat="48.70651" lon="1.75618">
        <ele>178.39999389648</ele>
        <time>2015-01-25T10:29:19.000Z</time>
      </trkpt>
      <trkpt lat="48.70647" lon="1.75631">
        <ele>179.19999694824</ele>
        <time>2015-01-25T10:29:31.000Z</time>
      </trkpt>
      <trkpt lat="48.70643" lon="1.75638">
        <ele>179.80000305176</ele>
        <time>2015-01-25T10:29:33.000Z</time>
      </trkpt>
      <trkpt lat="48.70639" lon="1.75651">
        <ele>180.60000610352</ele>
        <time>2015-01-25T10:29:40.000Z</time>
      </trkpt>
      <trkpt lat="48.70643" lon="1.7566">
        <ele>180.19999694824</ele>
        <time>2015-01-25T10:29:45.000Z</time>
      </trkpt>
      <trkpt lat="48.70642" lon="1.75666">
        <ele>180.19999694824</ele>
        <time>2015-01-25T10:29:51.000Z</time>
      </trkpt>
      <trkpt lat="48.70634" lon="1.75662">
        <ele>181.19999694824</ele>
        <time>2015-01-25T10:29:59.000Z</time>
      </trkpt>
      <trkpt lat="48.70634" lon="1.7566">
        <ele>181.19999694824</ele>
        <time>2015-01-25T10:30:02.000Z</time>
      </trkpt>
      <trkpt lat="48.70618" lon="1.75638">
        <ele>183</ele>
        <time>2015-01-25T10:31:16.000Z</time>
      </trkpt>
      <trkpt lat="48.70612" lon="1.75632">
        <ele>183.39999389648</ele>
        <time>2015-01-25T10:31:21.000Z</time>
      </trkpt>
      <trkpt lat="48.70612" lon="1.7563">
        <ele>183.39999389648</ele>
        <time>2015-01-25T10:31:22.000Z</time>
      </trkpt>
      <trkpt lat="48.70606" lon="1.75619">
        <ele>183.80000305176</ele>
        <time>2015-01-25T10:31:30.000Z</time>
      </trkpt>
      <trkpt lat="48.70604" lon="1.75617">
        <ele>184</ele>
        <time>2015-01-25T10:31:33.000Z</time>
      </trkpt>
      <trkpt lat="48.70599" lon="1.7561">
        <ele>184</ele>
        <time>2015-01-25T10:31:39.000Z</time>
      </trkpt>
      <trkpt lat="48.70596" lon="1.75605">
        <ele>184</ele>
        <time>2015-01-25T10:31:43.000Z</time>
      </trkpt>
      <trkpt lat="48.70594" lon="1.75604">
        <ele>184</ele>
        <time>2015-01-25T10:31:45.000Z</time>
      </trkpt>
      <trkpt lat="48.70591" lon="1.75602">
        <ele>184</ele>
        <time>2015-01-25T10:31:47.000Z</time>
      </trkpt>
      <trkpt lat="48.70585" lon="1.75595">
        <ele>184</ele>
        <time>2015-01-25T10:31:54.000Z</time>
      </trkpt>
      <trkpt lat="48.70581" lon="1.7559">
        <ele>184</ele>
        <time>2015-01-25T10:31:59.000Z</time>
      </trkpt>
      <trkpt lat="48.70581" lon="1.75589">
        <ele>184</ele>
        <time>2015-01-25T10:32:00.000Z</time>
      </trkpt>
      <trkpt lat="48.70575" lon="1.75582">
        <ele>184</ele>
        <time>2015-01-25T10:32:08.000Z</time>
      </trkpt>
      <trkpt lat="48.70571" lon="1.75576">
        <ele>183.80000305176</ele>
        <time>2015-01-25T10:32:13.000Z</time>
      </trkpt>
      <trkpt lat="48.70564" lon="1.75568">
        <ele>183.80000305176</ele>
        <time>2015-01-25T10:32:22.000Z</time>
      </trkpt>
      <trkpt lat="48.70559" lon="1.75566">
        <ele>183.80000305176</ele>
        <time>2015-01-25T10:32:27.000Z</time>
      </trkpt>
      <trkpt lat="48.70554" lon="1.75562">
        <ele>183.80000305176</ele>
        <time>2015-01-25T10:32:32.000Z</time>
      </trkpt>
      <trkpt lat="48.7055" lon="1.7556">
        <ele>183.80000305176</ele>
        <time>2015-01-25T10:32:36.000Z</time>
      </trkpt>
      <trkpt lat="48.70543" lon="1.75556">
        <ele>183.80000305176</ele>
        <time>2015-01-25T10:32:42.000Z</time>
      </trkpt>
      <trkpt lat="48.70535" lon="1.75556">
        <ele>184</ele>
        <time>2015-01-25T10:32:47.000Z</time>
      </trkpt>
      <trkpt lat="48.7053" lon="1.75545">
        <ele>183.60000610352</ele>
        <time>2015-01-25T10:32:55.000Z</time>
      </trkpt>
      <trkpt lat="48.70524" lon="1.7554">
        <ele>183.39999389648</ele>
        <time>2015-01-25T10:33:01.000Z</time>
      </trkpt>
      <trkpt lat="48.70522" lon="1.7553">
        <ele>183</ele>
        <time>2015-01-25T10:33:06.000Z</time>
      </trkpt>
      <trkpt lat="48.70519" lon="1.75519">
        <ele>182.60000610352</ele>
        <time>2015-01-25T10:33:11.000Z</time>
      </trkpt>
      <trkpt lat="48.70511" lon="1.75514">
        <ele>182.60000610352</ele>
        <time>2015-01-25T10:33:17.000Z</time>
      </trkpt>
      <trkpt lat="48.70505" lon="1.7551">
        <ele>182.60000610352</ele>
        <time>2015-01-25T10:33:23.000Z</time>
      </trkpt>
      <trkpt lat="48.70491" lon="1.75503">
        <ele>182.80000305176</ele>
        <time>2015-01-25T10:33:34.000Z</time>
      </trkpt>
      <trkpt lat="48.70488" lon="1.755">
        <ele>182.80000305176</ele>
        <time>2015-01-25T10:33:38.000Z</time>
      </trkpt>
      <trkpt lat="48.70484" lon="1.75492">
        <ele>182.39999389648</ele>
        <time>2015-01-25T10:33:47.000Z</time>
      </trkpt>
      <trkpt lat="48.70481" lon="1.7548">
        <ele>182.19999694824</ele>
        <time>2015-01-25T10:33:54.000Z</time>
      </trkpt>
      <trkpt lat="48.70475" lon="1.75474">
        <ele>182.39999389648</ele>
        <time>2015-01-25T10:34:01.000Z</time>
      </trkpt>
      <trkpt lat="48.70473" lon="1.75473">
        <ele>182.39999389648</ele>
        <time>2015-01-25T10:34:04.000Z</time>
      </trkpt>
      <trkpt lat="48.70461" lon="1.75463">
        <ele>182.60000610352</ele>
        <time>2015-01-25T10:34:22.000Z</time>
      </trkpt>
      <trkpt lat="48.70454" lon="1.75457">
        <ele>182.60000610352</ele>
        <time>2015-01-25T10:34:28.000Z</time>
      </trkpt>
      <trkpt lat="48.70448" lon="1.75449">
        <ele>182.60000610352</ele>
        <time>2015-01-25T10:34:35.000Z</time>
      </trkpt>
      <trkpt lat="48.7044" lon="1.75447">
        <ele>183</ele>
        <time>2015-01-25T10:34:41.000Z</time>
      </trkpt>
      <trkpt lat="48.70436" lon="1.75444">
        <ele>183</ele>
        <time>2015-01-25T10:34:46.000Z</time>
      </trkpt>
      <trkpt lat="48.70428" lon="1.75441">
        <ele>182.80000305176</ele>
        <time>2015-01-25T10:34:51.000Z</time>
      </trkpt>
      <trkpt lat="48.70423" lon="1.75439">
        <ele>182.60000610352</ele>
        <time>2015-01-25T10:34:54.000Z</time>
      </trkpt>
      <trkpt lat="48.70416" lon="1.75437">
        <ele>182.60000610352</ele>
        <time>2015-01-25T10:34:59.000Z</time>
      </trkpt>
      <trkpt lat="48.70409" lon="1.75427">
        <ele>182.19999694824</ele>
        <time>2015-01-25T10:35:09.000Z</time>
      </trkpt>
      <trkpt lat="48.70404" lon="1.75419">
        <ele>182</ele>
        <time>2015-01-25T10:35:16.000Z</time>
      </trkpt>
      <trkpt lat="48.70398" lon="1.75416">
        <ele>181.80000305176</ele>
        <time>2015-01-25T10:35:22.000Z</time>
      </trkpt>
      <trkpt lat="48.70396" lon="1.75414">
        <ele>181.80000305176</ele>
        <time>2015-01-25T10:35:24.000Z</time>
      </trkpt>
      <trkpt lat="48.70391" lon="1.75411">
        <ele>181.60000610352</ele>
        <time>2015-01-25T10:35:32.000Z</time>
      </trkpt>
      <trkpt lat="48.70389" lon="1.7541">
        <ele>181.60000610352</ele>
        <time>2015-01-25T10:35:37.000Z</time>
      </trkpt>
      <trkpt lat="48.70388" lon="1.75409">
        <ele>181.60000610352</ele>
        <time>2015-01-25T10:35:40.000Z</time>
      </trkpt>
      <trkpt lat="48.70352" lon="1.75381">
        <ele>181</ele>
        <time>2015-01-25T10:36:33.000Z</time>
      </trkpt>
      <trkpt lat="48.70346" lon="1.75378">
        <ele>180.80000305176</ele>
        <time>2015-01-25T10:36:37.000Z</time>
      </trkpt>
      <trkpt lat="48.70343" lon="1.75377">
        <ele>180.80000305176</ele>
        <time>2015-01-25T10:36:39.000Z</time>
      </trkpt>
      <trkpt lat="48.70338" lon="1.7537">
        <ele>180.60000610352</ele>
        <time>2015-01-25T10:36:46.000Z</time>
      </trkpt>
      <trkpt lat="48.70338" lon="1.75368">
        <ele>180.60000610352</ele>
        <time>2015-01-25T10:36:47.000Z</time>
      </trkpt>
      <trkpt lat="48.70329" lon="1.75362">
        <ele>180.39999389648</ele>
        <time>2015-01-25T10:36:55.000Z</time>
      </trkpt>
      <trkpt lat="48.70326" lon="1.75358">
        <ele>180.39999389648</ele>
        <time>2015-01-25T10:36:59.000Z</time>
      </trkpt>
      <trkpt lat="48.70322" lon="1.75353">
        <ele>180.19999694824</ele>
        <time>2015-01-25T10:37:04.000Z</time>
      </trkpt>
      <trkpt lat="48.70314" lon="1.75345">
        <ele>180</ele>
        <time>2015-01-25T10:37:12.000Z</time>
      </trkpt>
      <trkpt lat="48.7031" lon="1.7534">
        <ele>180</ele>
        <time>2015-01-25T10:37:17.000Z</time>
      </trkpt>
      <trkpt lat="48.70306" lon="1.75333">
        <ele>179.80000305176</ele>
        <time>2015-01-25T10:37:23.000Z</time>
      </trkpt>
      <trkpt lat="48.70307" lon="1.75331">
        <ele>179.80000305176</ele>
        <time>2015-01-25T10:37:27.000Z</time>
      </trkpt>
      <trkpt lat="48.70307" lon="1.75313">
        <ele>180</ele>
        <time>2015-01-25T10:38:57.000Z</time>
      </trkpt>
      <trkpt lat="48.70307" lon="1.75311">
        <ele>180</ele>
        <time>2015-01-25T10:38:58.000Z</time>
      </trkpt>
      <trkpt lat="48.70309" lon="1.75308">
        <ele>180</ele>
        <time>2015-01-25T10:39:02.000Z</time>
      </trkpt>
      <trkpt lat="48.70309" lon="1.75307">
        <ele>180</ele>
        <time>2015-01-25T10:39:03.000Z</time>
      </trkpt>
      <trkpt lat="48.70295" lon="1.75291">
        <ele>180</ele>
        <time>2015-01-25T10:39:41.000Z</time>
      </trkpt>
      <trkpt lat="48.7029" lon="1.75288">
        <ele>179.80000305176</ele>
        <time>2015-01-25T10:39:45.000Z</time>
      </trkpt>
      <trkpt lat="48.70286" lon="1.75287">
        <ele>179.80000305176</ele>
        <time>2015-01-25T10:39:49.000Z</time>
      </trkpt>
      <trkpt lat="48.7028" lon="1.75285">
        <ele>179.60000610352</ele>
        <time>2015-01-25T10:39:53.000Z</time>
      </trkpt>
      <trkpt lat="48.70274" lon="1.75279">
        <ele>179.60000610352</ele>
        <time>2015-01-25T10:39:59.000Z</time>
      </trkpt>
      <trkpt lat="48.70264" lon="1.75272">
        <ele>179.39999389648</ele>
        <time>2015-01-25T10:40:07.000Z</time>
      </trkpt>
      <trkpt lat="48.70263" lon="1.75272">
        <ele>179.19999694824</ele>
        <time>2015-01-25T10:40:08.000Z</time>
      </trkpt>
      <trkpt lat="48.70261" lon="1.75268">
        <ele>179.19999694824</ele>
        <time>2015-01-25T10:40:11.000Z</time>
      </trkpt>
      <trkpt lat="48.70258" lon="1.75266">
        <ele>179</ele>
        <time>2015-01-25T10:40:15.000Z</time>
      </trkpt>
      <trkpt lat="48.70256" lon="1.75265">
        <ele>179</ele>
        <time>2015-01-25T10:40:18.000Z</time>
      </trkpt>
      <trkpt lat="48.70234" lon="1.75249">
        <ele>178.19999694824</ele>
        <time>2015-01-25T10:41:56.000Z</time>
      </trkpt>
      <trkpt lat="48.70226" lon="1.75244">
        <ele>177.80000305176</ele>
        <time>2015-01-25T10:42:01.000Z</time>
      </trkpt>
      <trkpt lat="48.70216" lon="1.75243">
        <ele>177.39999389648</ele>
        <time>2015-01-25T10:42:08.000Z</time>
      </trkpt>
      <trkpt lat="48.70206" lon="1.75245">
        <ele>176.80000305176</ele>
        <time>2015-01-25T10:42:16.000Z</time>
      </trkpt>
      <trkpt lat="48.70197" lon="1.7525">
        <ele>176.39999389648</ele>
        <time>2015-01-25T10:42:23.000Z</time>
      </trkpt>
      <trkpt lat="48.70191" lon="1.75252">
        <ele>176.19999694824</ele>
        <time>2015-01-25T10:42:27.000Z</time>
      </trkpt>
      <trkpt lat="48.7018" lon="1.75255">
        <ele>176</ele>
        <time>2015-01-25T10:42:35.000Z</time>
      </trkpt>
      <trkpt lat="48.7017" lon="1.75258">
        <ele>175.80000305176</ele>
        <time>2015-01-25T10:42:43.000Z</time>
      </trkpt>
      <trkpt lat="48.70164" lon="1.75261">
        <ele>175.80000305176</ele>
        <time>2015-01-25T10:42:49.000Z</time>
      </trkpt>
      <trkpt lat="48.70159" lon="1.75266">
        <ele>175.60000610352</ele>
        <time>2015-01-25T10:42:55.000Z</time>
      </trkpt>
      <trkpt lat="48.70149" lon="1.7527">
        <ele>175.60000610352</ele>
        <time>2015-01-25T10:43:03.000Z</time>
      </trkpt>
      <trkpt lat="48.7014" lon="1.75274">
        <ele>175.39999389648</ele>
        <time>2015-01-25T10:43:09.000Z</time>
      </trkpt>
      <trkpt lat="48.70133" lon="1.75279">
        <ele>175</ele>
        <time>2015-01-25T10:43:15.000Z</time>
      </trkpt>
      <trkpt lat="48.70125" lon="1.75283">
        <ele>174.80000305176</ele>
        <time>2015-01-25T10:43:22.000Z</time>
      </trkpt>
      <trkpt lat="48.70115" lon="1.75287">
        <ele>174.19999694824</ele>
        <time>2015-01-25T10:43:30.000Z</time>
      </trkpt>
      <trkpt lat="48.70107" lon="1.75291">
        <ele>173.80000305176</ele>
        <time>2015-01-25T10:43:37.000Z</time>
      </trkpt>
      <trkpt lat="48.701" lon="1.75294">
        <ele>173.60000610352</ele>
        <time>2015-01-25T10:43:43.000Z</time>
      </trkpt>
      <trkpt lat="48.70098" lon="1.75295">
        <ele>173.60000610352</ele>
        <time>2015-01-25T10:43:44.000Z</time>
      </trkpt>
      <trkpt lat="48.70089" lon="1.75298">
        <ele>173.39999389648</ele>
        <time>2015-01-25T10:43:51.000Z</time>
      </trkpt>
      <trkpt lat="48.70083" lon="1.75299">
        <ele>173.19999694824</ele>
        <time>2015-01-25T10:43:56.000Z</time>
      </trkpt>
      <trkpt lat="48.70073" lon="1.75308">
        <ele>173</ele>
        <time>2015-01-25T10:44:04.000Z</time>
      </trkpt>
      <trkpt lat="48.70065" lon="1.75312">
        <ele>172.80000305176</ele>
        <time>2015-01-25T10:44:11.000Z</time>
      </trkpt>
      <trkpt lat="48.70063" lon="1.75312">
        <ele>172.80000305176</ele>
        <time>2015-01-25T10:44:12.000Z</time>
      </trkpt>
      <trkpt lat="48.70053" lon="1.75316">
        <ele>172.60000610352</ele>
        <time>2015-01-25T10:44:19.000Z</time>
      </trkpt>
      <trkpt lat="48.70043" lon="1.75322">
        <ele>172.19999694824</ele>
        <time>2015-01-25T10:44:27.000Z</time>
      </trkpt>
      <trkpt lat="48.70032" lon="1.75328">
        <ele>171.60000610352</ele>
        <time>2015-01-25T10:44:36.000Z</time>
      </trkpt>
      <trkpt lat="48.70032" lon="1.75329">
        <ele>171.60000610352</ele>
        <time>2015-01-25T10:44:37.000Z</time>
      </trkpt>
      <trkpt lat="48.70023" lon="1.75334">
        <ele>171.39999389648</ele>
        <time>2015-01-25T10:44:45.000Z</time>
      </trkpt>
      <trkpt lat="48.70015" lon="1.75336">
        <ele>171.39999389648</ele>
        <time>2015-01-25T10:44:52.000Z</time>
      </trkpt>
      <trkpt lat="48.70008" lon="1.7534">
        <ele>171.19999694824</ele>
        <time>2015-01-25T10:44:57.000Z</time>
      </trkpt>
      <trkpt lat="48.69996" lon="1.75341">
        <ele>171.39999389648</ele>
        <time>2015-01-25T10:45:07.000Z</time>
      </trkpt>
      <trkpt lat="48.69989" lon="1.75349">
        <ele>171</ele>
        <time>2015-01-25T10:45:14.000Z</time>
      </trkpt>
      <trkpt lat="48.69983" lon="1.75351">
        <ele>171</ele>
        <time>2015-01-25T10:45:21.000Z</time>
      </trkpt>
      <trkpt lat="48.69975" lon="1.75356">
        <ele>170.80000305176</ele>
        <time>2015-01-25T10:45:28.000Z</time>
      </trkpt>
      <trkpt lat="48.69971" lon="1.75359">
        <ele>171</ele>
        <time>2015-01-25T10:45:32.000Z</time>
      </trkpt>
      <trkpt lat="48.6996" lon="1.7536">
        <ele>171.39999389648</ele>
        <time>2015-01-25T10:45:41.000Z</time>
      </trkpt>
      <trkpt lat="48.69951" lon="1.75364">
        <ele>171.80000305176</ele>
        <time>2015-01-25T10:45:48.000Z</time>
      </trkpt>
      <trkpt lat="48.69943" lon="1.75369">
        <ele>172.19999694824</ele>
        <time>2015-01-25T10:45:55.000Z</time>
      </trkpt>
      <trkpt lat="48.69937" lon="1.75373">
        <ele>172.39999389648</ele>
        <time>2015-01-25T10:46:01.000Z</time>
      </trkpt>
      <trkpt lat="48.69928" lon="1.75378">
        <ele>172.19999694824</ele>
        <time>2015-01-25T10:46:10.000Z</time>
      </trkpt>
      <trkpt lat="48.69916" lon="1.75384">
        <ele>172</ele>
        <time>2015-01-25T10:46:19.000Z</time>
      </trkpt>
      <trkpt lat="48.69907" lon="1.7539">
        <ele>171.60000610352</ele>
        <time>2015-01-25T10:46:26.000Z</time>
      </trkpt>
      <trkpt lat="48.69894" lon="1.75396">
        <ele>171.19999694824</ele>
        <time>2015-01-25T10:46:36.000Z</time>
      </trkpt>
      <trkpt lat="48.69887" lon="1.75398">
        <ele>171</ele>
        <time>2015-01-25T10:46:43.000Z</time>
      </trkpt>
      <trkpt lat="48.6988" lon="1.75402">
        <ele>170.60000610352</ele>
        <time>2015-01-25T10:46:50.000Z</time>
      </trkpt>
      <trkpt lat="48.69869" lon="1.75408">
        <ele>170.19999694824</ele>
        <time>2015-01-25T10:46:59.000Z</time>
      </trkpt>
      <trkpt lat="48.69858" lon="1.75414">
        <ele>169.80000305176</ele>
        <time>2015-01-25T10:47:08.000Z</time>
      </trkpt>
      <trkpt lat="48.69852" lon="1.75418">
        <ele>169.39999389648</ele>
        <time>2015-01-25T10:47:14.000Z</time>
      </trkpt>
      <trkpt lat="48.69841" lon="1.75422">
        <ele>169</ele>
        <time>2015-01-25T10:47:23.000Z</time>
      </trkpt>
      <trkpt lat="48.69833" lon="1.75425">
        <ele>168.60000610352</ele>
        <time>2015-01-25T10:47:30.000Z</time>
      </trkpt>
      <trkpt lat="48.69825" lon="1.75426">
        <ele>168.19999694824</ele>
        <time>2015-01-25T10:47:36.000Z</time>
      </trkpt>
      <trkpt lat="48.69818" lon="1.75429">
        <ele>167.80000305176</ele>
        <time>2015-01-25T10:47:42.000Z</time>
      </trkpt>
      <trkpt lat="48.69813" lon="1.75434">
        <ele>167.39999389648</ele>
        <time>2015-01-25T10:47:47.000Z</time>
      </trkpt>
      <trkpt lat="48.69803" lon="1.75436">
        <ele>167</ele>
        <time>2015-01-25T10:47:55.000Z</time>
      </trkpt>
      <trkpt lat="48.69791" lon="1.7544">
        <ele>166.39999389648</ele>
        <time>2015-01-25T10:48:04.000Z</time>
      </trkpt>
      <trkpt lat="48.69783" lon="1.75444">
        <ele>165.80000305176</ele>
        <time>2015-01-25T10:48:11.000Z</time>
      </trkpt>
      <trkpt lat="48.69774" lon="1.75449">
        <ele>165</ele>
        <time>2015-01-25T10:48:18.000Z</time>
      </trkpt>
      <trkpt lat="48.69764" lon="1.75453">
        <ele>164.39999389648</ele>
        <time>2015-01-25T10:48:26.000Z</time>
      </trkpt>
      <trkpt lat="48.69762" lon="1.75455">
        <ele>164.19999694824</ele>
        <time>2015-01-25T10:48:28.000Z</time>
      </trkpt>
      <trkpt lat="48.69751" lon="1.7546">
        <ele>163.39999389648</ele>
        <time>2015-01-25T10:48:36.000Z</time>
      </trkpt>
      <trkpt lat="48.69741" lon="1.75465">
        <ele>162.80000305176</ele>
        <time>2015-01-25T10:48:44.000Z</time>
      </trkpt>
      <trkpt lat="48.69731" lon="1.7547">
        <ele>162</ele>
        <time>2015-01-25T10:48:52.000Z</time>
      </trkpt>
      <trkpt lat="48.6972" lon="1.75475">
        <ele>161.19999694824</ele>
        <time>2015-01-25T10:49:01.000Z</time>
      </trkpt>
      <trkpt lat="48.69711" lon="1.7548">
        <ele>160.60000610352</ele>
        <time>2015-01-25T10:49:09.000Z</time>
      </trkpt>
      <trkpt lat="48.69699" lon="1.75485">
        <ele>159.60000610352</ele>
        <time>2015-01-25T10:49:19.000Z</time>
      </trkpt>
      <trkpt lat="48.69686" lon="1.75491">
        <ele>158.80000305176</ele>
        <time>2015-01-25T10:49:30.000Z</time>
      </trkpt>
      <trkpt lat="48.69678" lon="1.75495">
        <ele>158.39999389648</ele>
        <time>2015-01-25T10:49:37.000Z</time>
      </trkpt>
      <trkpt lat="48.69667" lon="1.75503">
        <ele>158</ele>
        <time>2015-01-25T10:49:46.000Z</time>
      </trkpt>
      <trkpt lat="48.69664" lon="1.75504">
        <ele>157.80000305176</ele>
        <time>2015-01-25T10:49:49.000Z</time>
      </trkpt>
      <trkpt lat="48.69651" lon="1.75509">
        <ele>157.19999694824</ele>
        <time>2015-01-25T10:49:59.000Z</time>
      </trkpt>
      <trkpt lat="48.69643" lon="1.75513">
        <ele>156.80000305176</ele>
        <time>2015-01-25T10:50:06.000Z</time>
      </trkpt>
      <trkpt lat="48.69632" lon="1.75518">
        <ele>156.39999389648</ele>
        <time>2015-01-25T10:50:16.000Z</time>
      </trkpt>
      <trkpt lat="48.69622" lon="1.75523">
        <ele>156.19999694824</ele>
        <time>2015-01-25T10:50:24.000Z</time>
      </trkpt>
      <trkpt lat="48.69613" lon="1.75526">
        <ele>156.19999694824</ele>
        <time>2015-01-25T10:50:31.000Z</time>
      </trkpt>
      <trkpt lat="48.69604" lon="1.7553">
        <ele>156</ele>
        <time>2015-01-25T10:50:38.000Z</time>
      </trkpt>
      <trkpt lat="48.69595" lon="1.75536">
        <ele>155.80000305176</ele>
        <time>2015-01-25T10:50:46.000Z</time>
      </trkpt>
      <trkpt lat="48.69585" lon="1.75542">
        <ele>155.60000610352</ele>
        <time>2015-01-25T10:50:54.000Z</time>
      </trkpt>
      <trkpt lat="48.69577" lon="1.75543">
        <ele>155.39999389648</ele>
        <time>2015-01-25T10:51:00.000Z</time>
      </trkpt>
      <trkpt lat="48.69572" lon="1.75546">
        <ele>155.39999389648</ele>
        <time>2015-01-25T10:51:04.000Z</time>
      </trkpt>
      <trkpt lat="48.69567" lon="1.75543">
        <ele>155.39999389648</ele>
        <time>2015-01-25T10:51:08.000Z</time>
      </trkpt>
      <trkpt lat="48.69562" lon="1.75523">
        <ele>155</ele>
        <time>2015-01-25T10:51:19.000Z</time>
      </trkpt>
      <trkpt lat="48.69558" lon="1.75504">
        <ele>155</ele>
        <time>2015-01-25T10:51:29.000Z</time>
      </trkpt>
      <trkpt lat="48.69552" lon="1.75483">
        <ele>154.80000305176</ele>
        <time>2015-01-25T10:51:41.000Z</time>
      </trkpt>
      <trkpt lat="48.69547" lon="1.75465">
        <ele>154.60000610352</ele>
        <time>2015-01-25T10:51:51.000Z</time>
      </trkpt>
      <trkpt lat="48.69544" lon="1.75453">
        <ele>154.60000610352</ele>
        <time>2015-01-25T10:51:58.000Z</time>
      </trkpt>
      <trkpt lat="48.6954" lon="1.75434">
        <ele>154.39999389648</ele>
        <time>2015-01-25T10:52:07.000Z</time>
      </trkpt>
      <trkpt lat="48.69536" lon="1.7542">
        <ele>154.39999389648</ele>
        <time>2015-01-25T10:52:15.000Z</time>
      </trkpt>
      <trkpt lat="48.69531" lon="1.75403">
        <ele>154.60000610352</ele>
        <time>2015-01-25T10:52:24.000Z</time>
      </trkpt>
      <trkpt lat="48.69527" lon="1.75387">
        <ele>155</ele>
        <time>2015-01-25T10:52:33.000Z</time>
      </trkpt>
      <trkpt lat="48.69523" lon="1.75369">
        <ele>155.39999389648</ele>
        <time>2015-01-25T10:52:42.000Z</time>
      </trkpt>
      <trkpt lat="48.69519" lon="1.75354">
        <ele>155.80000305176</ele>
        <time>2015-01-25T10:52:51.000Z</time>
      </trkpt>
      <trkpt lat="48.69514" lon="1.75337">
        <ele>156.19999694824</ele>
        <time>2015-01-25T10:53:00.000Z</time>
      </trkpt>
      <trkpt lat="48.6951" lon="1.75321">
        <ele>156.80000305176</ele>
        <time>2015-01-25T10:53:09.000Z</time>
      </trkpt>
      <trkpt lat="48.69507" lon="1.75306">
        <ele>157.60000610352</ele>
        <time>2015-01-25T10:53:17.000Z</time>
      </trkpt>
      <trkpt lat="48.69503" lon="1.75289">
        <ele>158.39999389648</ele>
        <time>2015-01-25T10:53:26.000Z</time>
      </trkpt>
      <trkpt lat="48.69498" lon="1.75279">
        <ele>158.80000305176</ele>
        <time>2015-01-25T10:53:32.000Z</time>
      </trkpt>
      <trkpt lat="48.69493" lon="1.75268">
        <ele>159.19999694824</ele>
        <time>2015-01-25T10:53:39.000Z</time>
      </trkpt>
      <trkpt lat="48.69489" lon="1.75259">
        <ele>159.60000610352</ele>
        <time>2015-01-25T10:53:46.000Z</time>
      </trkpt>
      <trkpt lat="48.69486" lon="1.75247">
        <ele>160.19999694824</ele>
        <time>2015-01-25T10:53:54.000Z</time>
      </trkpt>
      <trkpt lat="48.69482" lon="1.75232">
        <ele>160.80000305176</ele>
        <time>2015-01-25T10:54:01.000Z</time>
      </trkpt>
      <trkpt lat="48.69481" lon="1.75231">
        <ele>161</ele>
        <time>2015-01-25T10:54:02.000Z</time>
      </trkpt>
      <trkpt lat="48.69478" lon="1.75217">
        <ele>161.80000305176</ele>
        <time>2015-01-25T10:54:09.000Z</time>
      </trkpt>
      <trkpt lat="48.69475" lon="1.75203">
        <ele>162.60000610352</ele>
        <time>2015-01-25T10:54:16.000Z</time>
      </trkpt>
      <trkpt lat="48.69471" lon="1.7519">
        <ele>163.19999694824</ele>
        <time>2015-01-25T10:54:24.000Z</time>
      </trkpt>
      <trkpt lat="48.69468" lon="1.7518">
        <ele>163.60000610352</ele>
        <time>2015-01-25T10:54:30.000Z</time>
      </trkpt>
      <trkpt lat="48.69467" lon="1.75168">
        <ele>164.19999694824</ele>
        <time>2015-01-25T10:54:37.000Z</time>
      </trkpt>
      <trkpt lat="48.69466" lon="1.75162">
        <ele>164.39999389648</ele>
        <time>2015-01-25T10:54:40.000Z</time>
      </trkpt>
      <trkpt lat="48.69465" lon="1.75151">
        <ele>164.80000305176</ele>
        <time>2015-01-25T10:54:46.000Z</time>
      </trkpt>
      <trkpt lat="48.69462" lon="1.75136">
        <ele>165.39999389648</ele>
        <time>2015-01-25T10:54:54.000Z</time>
      </trkpt>
      <trkpt lat="48.69459" lon="1.75122">
        <ele>165.80000305176</ele>
        <time>2015-01-25T10:55:02.000Z</time>
      </trkpt>
      <trkpt lat="48.69456" lon="1.75109">
        <ele>166.39999389648</ele>
        <time>2015-01-25T10:55:10.000Z</time>
      </trkpt>
      <trkpt lat="48.69452" lon="1.75097">
        <ele>166.80000305176</ele>
        <time>2015-01-25T10:55:17.000Z</time>
      </trkpt>
      <trkpt lat="48.69447" lon="1.7508">
        <ele>167.60000610352</ele>
        <time>2015-01-25T10:55:27.000Z</time>
      </trkpt>
      <trkpt lat="48.69444" lon="1.75062">
        <ele>167.80000305176</ele>
        <time>2015-01-25T10:55:36.000Z</time>
      </trkpt>
      <trkpt lat="48.69439" lon="1.75049">
        <ele>168</ele>
        <time>2015-01-25T10:55:44.000Z</time>
      </trkpt>
      <trkpt lat="48.69437" lon="1.75038">
        <ele>168</ele>
        <time>2015-01-25T10:55:51.000Z</time>
      </trkpt>
      <trkpt lat="48.69437" lon="1.75036">
        <ele>168</ele>
        <time>2015-01-25T10:55:55.000Z</time>
      </trkpt>
      <trkpt lat="48.69434" lon="1.75026">
        <ele>167.80000305176</ele>
        <time>2015-01-25T10:56:13.000Z</time>
      </trkpt>
      <trkpt lat="48.6943" lon="1.75014">
        <ele>167.80000305176</ele>
        <time>2015-01-25T10:56:19.000Z</time>
      </trkpt>
      <trkpt lat="48.69426" lon="1.75">
        <ele>167.60000610352</ele>
        <time>2015-01-25T10:56:27.000Z</time>
      </trkpt>
      <trkpt lat="48.69421" lon="1.74993">
        <ele>167.39999389648</ele>
        <time>2015-01-25T10:56:33.000Z</time>
      </trkpt>
      <trkpt lat="48.69417" lon="1.74979">
        <ele>166.80000305176</ele>
        <time>2015-01-25T10:56:41.000Z</time>
      </trkpt>
      <trkpt lat="48.69413" lon="1.74968">
        <ele>166.19999694824</ele>
        <time>2015-01-25T10:56:48.000Z</time>
      </trkpt>
      <trkpt lat="48.6941" lon="1.74956">
        <ele>165.60000610352</ele>
        <time>2015-01-25T10:56:56.000Z</time>
      </trkpt>
      <trkpt lat="48.69407" lon="1.74947">
        <ele>165.19999694824</ele>
        <time>2015-01-25T10:57:02.000Z</time>
      </trkpt>
      <trkpt lat="48.69406" lon="1.74939">
        <ele>164.80000305176</ele>
        <time>2015-01-25T10:57:06.000Z</time>
      </trkpt>
      <trkpt lat="48.69403" lon="1.74922">
        <ele>164</ele>
        <time>2015-01-25T10:57:14.000Z</time>
      </trkpt>
      <trkpt lat="48.69402" lon="1.74921">
        <ele>164</ele>
        <time>2015-01-25T10:57:15.000Z</time>
      </trkpt>
      <trkpt lat="48.69398" lon="1.74916">
        <ele>163.60000610352</ele>
        <time>2015-01-25T10:57:19.000Z</time>
      </trkpt>
      <trkpt lat="48.69396" lon="1.74908">
        <ele>163.19999694824</ele>
        <time>2015-01-25T10:57:25.000Z</time>
      </trkpt>
      <trkpt lat="48.69397" lon="1.74902">
        <ele>163.19999694824</ele>
        <time>2015-01-25T10:57:29.000Z</time>
      </trkpt>
      <trkpt lat="48.69397" lon="1.74896">
        <ele>163.19999694824</ele>
        <time>2015-01-25T10:57:33.000Z</time>
      </trkpt>
      <trkpt lat="48.69394" lon="1.74879">
        <ele>163.19999694824</ele>
        <time>2015-01-25T10:57:42.000Z</time>
      </trkpt>
      <trkpt lat="48.69391" lon="1.74866">
        <ele>163.19999694824</ele>
        <time>2015-01-25T10:57:50.000Z</time>
      </trkpt>
      <trkpt lat="48.69388" lon="1.74854">
        <ele>163.19999694824</ele>
        <time>2015-01-25T10:57:57.000Z</time>
      </trkpt>
      <trkpt lat="48.69383" lon="1.74837">
        <ele>162.60000610352</ele>
        <time>2015-01-25T10:58:08.000Z</time>
      </trkpt>
      <trkpt lat="48.69378" lon="1.74817">
        <ele>162.19999694824</ele>
        <time>2015-01-25T10:58:16.000Z</time>
      </trkpt>
      <trkpt lat="48.69374" lon="1.74801">
        <ele>163.19999694824</ele>
        <time>2015-01-25T10:58:24.000Z</time>
      </trkpt>
      <trkpt lat="48.69373" lon="1.74785">
        <ele>164.19999694824</ele>
        <time>2015-01-25T10:58:32.000Z</time>
      </trkpt>
      <trkpt lat="48.69368" lon="1.7477">
        <ele>165</ele>
        <time>2015-01-25T10:58:40.000Z</time>
      </trkpt>
      <trkpt lat="48.69364" lon="1.74752">
        <ele>166.19999694824</ele>
        <time>2015-01-25T10:58:50.000Z</time>
      </trkpt>
      <trkpt lat="48.69361" lon="1.74741">
        <ele>166.60000610352</ele>
        <time>2015-01-25T10:58:57.000Z</time>
      </trkpt>
      <trkpt lat="48.69358" lon="1.74727">
        <ele>166.80000305176</ele>
        <time>2015-01-25T10:59:05.000Z</time>
      </trkpt>
      <trkpt lat="48.69354" lon="1.74713">
        <ele>167</ele>
        <time>2015-01-25T10:59:13.000Z</time>
      </trkpt>
      <trkpt lat="48.69349" lon="1.747">
        <ele>167</ele>
        <time>2015-01-25T10:59:21.000Z</time>
      </trkpt>
      <trkpt lat="48.69343" lon="1.74689">
        <ele>167.19999694824</ele>
        <time>2015-01-25T10:59:28.000Z</time>
      </trkpt>
      <trkpt lat="48.6934" lon="1.74674">
        <ele>167.19999694824</ele>
        <time>2015-01-25T10:59:37.000Z</time>
      </trkpt>
      <trkpt lat="48.69334" lon="1.74655">
        <ele>167.19999694824</ele>
        <time>2015-01-25T10:59:48.000Z</time>
      </trkpt>
      <trkpt lat="48.69329" lon="1.74637">
        <ele>167.39999389648</ele>
        <time>2015-01-25T10:59:57.000Z</time>
      </trkpt>
      <trkpt lat="48.69325" lon="1.74617">
        <ele>167.80000305176</ele>
        <time>2015-01-25T11:00:08.000Z</time>
      </trkpt>
      <trkpt lat="48.69322" lon="1.74598">
        <ele>168</ele>
        <time>2015-01-25T11:00:18.000Z</time>
      </trkpt>
      <trkpt lat="48.69319" lon="1.74582">
        <ele>168.19999694824</ele>
        <time>2015-01-25T11:00:27.000Z</time>
      </trkpt>
      <trkpt lat="48.69315" lon="1.74571">
        <ele>168.39999389648</ele>
        <time>2015-01-25T11:00:34.000Z</time>
      </trkpt>
      <trkpt lat="48.69309" lon="1.74556">
        <ele>168.60000610352</ele>
        <time>2015-01-25T11:00:44.000Z</time>
      </trkpt>
      <trkpt lat="48.69308" lon="1.7455">
        <ele>168.60000610352</ele>
        <time>2015-01-25T11:00:47.000Z</time>
      </trkpt>
      <trkpt lat="48.69305" lon="1.74542">
        <ele>168.60000610352</ele>
        <time>2015-01-25T11:00:52.000Z</time>
      </trkpt>
      <trkpt lat="48.693" lon="1.74529">
        <ele>168.60000610352</ele>
        <time>2015-01-25T11:01:00.000Z</time>
      </trkpt>
      <trkpt lat="48.69299" lon="1.74519">
        <ele>168.60000610352</ele>
        <time>2015-01-25T11:01:06.000Z</time>
      </trkpt>
      <trkpt lat="48.69297" lon="1.74505">
        <ele>168.60000610352</ele>
        <time>2015-01-25T11:01:12.000Z</time>
      </trkpt>
      <trkpt lat="48.69294" lon="1.74491">
        <ele>168.39999389648</ele>
        <time>2015-01-25T11:01:18.000Z</time>
      </trkpt>
      <trkpt lat="48.69289" lon="1.74478">
        <ele>168</ele>
        <time>2015-01-25T11:01:25.000Z</time>
      </trkpt>
      <trkpt lat="48.69289" lon="1.74476">
        <ele>168</ele>
        <time>2015-01-25T11:01:29.000Z</time>
      </trkpt>
      <trkpt lat="48.69286" lon="1.74466">
        <ele>167.60000610352</ele>
        <time>2015-01-25T11:01:55.000Z</time>
      </trkpt>
      <trkpt lat="48.69282" lon="1.74452">
        <ele>167</ele>
        <time>2015-01-25T11:02:02.000Z</time>
      </trkpt>
      <trkpt lat="48.69278" lon="1.74437">
        <ele>166.39999389648</ele>
        <time>2015-01-25T11:02:10.000Z</time>
      </trkpt>
      <trkpt lat="48.69276" lon="1.74427">
        <ele>166</ele>
        <time>2015-01-25T11:02:15.000Z</time>
      </trkpt>
      <trkpt lat="48.69274" lon="1.74418">
        <ele>165.60000610352</ele>
        <time>2015-01-25T11:02:19.000Z</time>
      </trkpt>
      <trkpt lat="48.69271" lon="1.74402">
        <ele>164.80000305176</ele>
        <time>2015-01-25T11:02:27.000Z</time>
      </trkpt>
      <trkpt lat="48.69267" lon="1.74386">
        <ele>163.60000610352</ele>
        <time>2015-01-25T11:02:35.000Z</time>
      </trkpt>
      <trkpt lat="48.69264" lon="1.74374">
        <ele>162.80000305176</ele>
        <time>2015-01-25T11:02:42.000Z</time>
      </trkpt>
      <trkpt lat="48.69259" lon="1.74353">
        <ele>161.19999694824</ele>
        <time>2015-01-25T11:02:52.000Z</time>
      </trkpt>
      <trkpt lat="48.69254" lon="1.74334">
        <ele>159.80000305176</ele>
        <time>2015-01-25T11:03:01.000Z</time>
      </trkpt>
      <trkpt lat="48.6925" lon="1.7432">
        <ele>159</ele>
        <time>2015-01-25T11:03:08.000Z</time>
      </trkpt>
      <trkpt lat="48.69246" lon="1.74304">
        <ele>158.80000305176</ele>
        <time>2015-01-25T11:03:16.000Z</time>
      </trkpt>
      <trkpt lat="48.69245" lon="1.74302">
        <ele>158.80000305176</ele>
        <time>2015-01-25T11:03:17.000Z</time>
      </trkpt>
      <trkpt lat="48.69239" lon="1.7429">
        <ele>158.80000305176</ele>
        <time>2015-01-25T11:03:24.000Z</time>
      </trkpt>
      <trkpt lat="48.69236" lon="1.74272">
        <ele>158.39999389648</ele>
        <time>2015-01-25T11:03:33.000Z</time>
      </trkpt>
      <trkpt lat="48.69232" lon="1.74257">
        <ele>158</ele>
        <time>2015-01-25T11:03:41.000Z</time>
      </trkpt>
      <trkpt lat="48.69229" lon="1.74242">
        <ele>157.60000610352</ele>
        <time>2015-01-25T11:03:50.000Z</time>
      </trkpt>
      <trkpt lat="48.69226" lon="1.74226">
        <ele>157.60000610352</ele>
        <time>2015-01-25T11:03:59.000Z</time>
      </trkpt>
      <trkpt lat="48.69225" lon="1.7422">
        <ele>157.60000610352</ele>
        <time>2015-01-25T11:04:02.000Z</time>
      </trkpt>
      <trkpt lat="48.69222" lon="1.7421">
        <ele>157.80000305176</ele>
        <time>2015-01-25T11:04:08.000Z</time>
      </trkpt>
      <trkpt lat="48.69221" lon="1.74207">
        <ele>158</ele>
        <time>2015-01-25T11:04:10.000Z</time>
      </trkpt>
      <trkpt lat="48.6922" lon="1.74201">
        <ele>158</ele>
        <time>2015-01-25T11:04:14.000Z</time>
      </trkpt>
      <trkpt lat="48.69217" lon="1.74189">
        <ele>158.19999694824</ele>
        <time>2015-01-25T11:04:21.000Z</time>
      </trkpt>
      <trkpt lat="48.69213" lon="1.74175">
        <ele>158.80000305176</ele>
        <time>2015-01-25T11:04:28.000Z</time>
      </trkpt>
      <trkpt lat="48.69209" lon="1.74152">
        <ele>160.19999694824</ele>
        <time>2015-01-25T11:04:39.000Z</time>
      </trkpt>
      <trkpt lat="48.69206" lon="1.74135">
        <ele>160.39999389648</ele>
        <time>2015-01-25T11:04:47.000Z</time>
      </trkpt>
      <trkpt lat="48.69204" lon="1.74125">
        <ele>160.60000610352</ele>
        <time>2015-01-25T11:04:53.000Z</time>
      </trkpt>
      <trkpt lat="48.692" lon="1.74113">
        <ele>160.60000610352</ele>
        <time>2015-01-25T11:04:59.000Z</time>
      </trkpt>
      <trkpt lat="48.69195" lon="1.74098">
        <ele>160.80000305176</ele>
        <time>2015-01-25T11:05:07.000Z</time>
      </trkpt>
      <trkpt lat="48.6919" lon="1.74084">
        <ele>160.80000305176</ele>
        <time>2015-01-25T11:05:14.000Z</time>
      </trkpt>
      <trkpt lat="48.69188" lon="1.74076">
        <ele>161</ele>
        <time>2015-01-25T11:05:19.000Z</time>
      </trkpt>
      <trkpt lat="48.69185" lon="1.74061">
        <ele>161.19999694824</ele>
        <time>2015-01-25T11:05:27.000Z</time>
      </trkpt>
      <trkpt lat="48.69181" lon="1.74044">
        <ele>161.60000610352</ele>
        <time>2015-01-25T11:05:36.000Z</time>
      </trkpt>
      <trkpt lat="48.69178" lon="1.74033">
        <ele>161.80000305176</ele>
        <time>2015-01-25T11:05:43.000Z</time>
      </trkpt>
      <trkpt lat="48.69174" lon="1.7402">
        <ele>162.19999694824</ele>
        <time>2015-01-25T11:05:51.000Z</time>
      </trkpt>
      <trkpt lat="48.69169" lon="1.74007">
        <ele>162.60000610352</ele>
        <time>2015-01-25T11:05:58.000Z</time>
      </trkpt>
      <trkpt lat="48.69166" lon="1.73991">
        <ele>163</ele>
        <time>2015-01-25T11:06:07.000Z</time>
      </trkpt>
      <trkpt lat="48.69163" lon="1.73981">
        <ele>163.19999694824</ele>
        <time>2015-01-25T11:06:13.000Z</time>
      </trkpt>
      <trkpt lat="48.69163" lon="1.73978">
        <ele>163.19999694824</ele>
        <time>2015-01-25T11:06:14.000Z</time>
      </trkpt>
      <trkpt lat="48.6916" lon="1.73962">
        <ele>163.19999694824</ele>
        <time>2015-01-25T11:06:23.000Z</time>
      </trkpt>
      <trkpt lat="48.69157" lon="1.73955">
        <ele>163.60000610352</ele>
        <time>2015-01-25T11:06:27.000Z</time>
      </trkpt>
      <trkpt lat="48.69156" lon="1.73951">
        <ele>163.80000305176</ele>
        <time>2015-01-25T11:06:31.000Z</time>
      </trkpt>
      <trkpt lat="48.6915" lon="1.73938">
        <ele>164.39999389648</ele>
        <time>2015-01-25T11:06:51.000Z</time>
      </trkpt>
      <trkpt lat="48.69149" lon="1.73929">
        <ele>164.80000305176</ele>
        <time>2015-01-25T11:06:55.000Z</time>
      </trkpt>
      <trkpt lat="48.69144" lon="1.73915">
        <ele>165.39999389648</ele>
        <time>2015-01-25T11:07:03.000Z</time>
      </trkpt>
      <trkpt lat="48.6914" lon="1.73898">
        <ele>166.39999389648</ele>
        <time>2015-01-25T11:07:12.000Z</time>
      </trkpt>
      <trkpt lat="48.69136" lon="1.73884">
        <ele>167.39999389648</ele>
        <time>2015-01-25T11:07:19.000Z</time>
      </trkpt>
      <trkpt lat="48.69134" lon="1.7387">
        <ele>168.39999389648</ele>
        <time>2015-01-25T11:07:27.000Z</time>
      </trkpt>
      <trkpt lat="48.69133" lon="1.73868">
        <ele>168.60000610352</ele>
        <time>2015-01-25T11:07:28.000Z</time>
      </trkpt>
      <trkpt lat="48.69131" lon="1.73853">
        <ele>169.60000610352</ele>
        <time>2015-01-25T11:07:36.000Z</time>
      </trkpt>
      <trkpt lat="48.69129" lon="1.73844">
        <ele>170.39999389648</ele>
        <time>2015-01-25T11:07:42.000Z</time>
      </trkpt>
      <trkpt lat="48.69126" lon="1.73833">
        <ele>171.19999694824</ele>
        <time>2015-01-25T11:07:49.000Z</time>
      </trkpt>
      <trkpt lat="48.69125" lon="1.73826">
        <ele>171.60000610352</ele>
        <time>2015-01-25T11:07:53.000Z</time>
      </trkpt>
      <trkpt lat="48.69122" lon="1.73813">
        <ele>172.19999694824</ele>
        <time>2015-01-25T11:08:01.000Z</time>
      </trkpt>
      <trkpt lat="48.69118" lon="1.73799">
        <ele>172.80000305176</ele>
        <time>2015-01-25T11:08:09.000Z</time>
      </trkpt>
      <trkpt lat="48.69116" lon="1.73787">
        <ele>173.19999694824</ele>
        <time>2015-01-25T11:08:16.000Z</time>
      </trkpt>
      <trkpt lat="48.69114" lon="1.73775">
        <ele>173.60000610352</ele>
        <time>2015-01-25T11:08:23.000Z</time>
      </trkpt>
      <trkpt lat="48.69111" lon="1.73764">
        <ele>174</ele>
        <time>2015-01-25T11:08:31.000Z</time>
      </trkpt>
      <trkpt lat="48.6911" lon="1.73761">
        <ele>174.19999694824</ele>
        <time>2015-01-25T11:08:33.000Z</time>
      </trkpt>
      <trkpt lat="48.69107" lon="1.73752">
        <ele>174.39999389648</ele>
        <time>2015-01-25T11:08:38.000Z</time>
      </trkpt>
      <trkpt lat="48.69102" lon="1.73738">
        <ele>175</ele>
        <time>2015-01-25T11:08:46.000Z</time>
      </trkpt>
      <trkpt lat="48.691" lon="1.73724">
        <ele>175</ele>
        <time>2015-01-25T11:08:53.000Z</time>
      </trkpt>
      <trkpt lat="48.69097" lon="1.73709">
        <ele>174.80000305176</ele>
        <time>2015-01-25T11:09:02.000Z</time>
      </trkpt>
      <trkpt lat="48.69094" lon="1.73702">
        <ele>174.80000305176</ele>
        <time>2015-01-25T11:09:06.000Z</time>
      </trkpt>
      <trkpt lat="48.69089" lon="1.7369">
        <ele>174.60000610352</ele>
        <time>2015-01-25T11:09:13.000Z</time>
      </trkpt>
      <trkpt lat="48.69085" lon="1.73677">
        <ele>174.60000610352</ele>
        <time>2015-01-25T11:09:22.000Z</time>
      </trkpt>
      <trkpt lat="48.69081" lon="1.73661">
        <ele>174.39999389648</ele>
        <time>2015-01-25T11:09:31.000Z</time>
      </trkpt>
      <trkpt lat="48.69077" lon="1.73649">
        <ele>174.19999694824</ele>
        <time>2015-01-25T11:09:38.000Z</time>
      </trkpt>
      <trkpt lat="48.69073" lon="1.73633">
        <ele>173.80000305176</ele>
        <time>2015-01-25T11:09:47.000Z</time>
      </trkpt>
      <trkpt lat="48.69071" lon="1.73622">
        <ele>173.39999389648</ele>
        <time>2015-01-25T11:09:53.000Z</time>
      </trkpt>
      <trkpt lat="48.69068" lon="1.7361">
        <ele>173.39999389648</ele>
        <time>2015-01-25T11:10:01.000Z</time>
      </trkpt>
      <trkpt lat="48.69068" lon="1.7361">
        <ele>173.39999389648</ele>
        <time>2015-01-25T11:10:02.000Z</time>
      </trkpt>
      <trkpt lat="48.69063" lon="1.73601">
        <ele>173.19999694824</ele>
        <time>2015-01-25T11:10:12.000Z</time>
      </trkpt>
      <trkpt lat="48.69056" lon="1.73589">
        <ele>173</ele>
        <time>2015-01-25T11:10:18.000Z</time>
      </trkpt>
      <trkpt lat="48.69048" lon="1.73578">
        <ele>172.60000610352</ele>
        <time>2015-01-25T11:10:26.000Z</time>
      </trkpt>
      <trkpt lat="48.69037" lon="1.73567">
        <ele>172</ele>
        <time>2015-01-25T11:10:36.000Z</time>
      </trkpt>
      <trkpt lat="48.69031" lon="1.73557">
        <ele>171.60000610352</ele>
        <time>2015-01-25T11:10:44.000Z</time>
      </trkpt>
      <trkpt lat="48.69023" lon="1.73546">
        <ele>171.19999694824</ele>
        <time>2015-01-25T11:10:53.000Z</time>
      </trkpt>
      <trkpt lat="48.69013" lon="1.73534">
        <ele>171</ele>
        <time>2015-01-25T11:11:03.000Z</time>
      </trkpt>
      <trkpt lat="48.69006" lon="1.73522">
        <ele>171</ele>
        <time>2015-01-25T11:11:11.000Z</time>
      </trkpt>
      <trkpt lat="48.68999" lon="1.73513">
        <ele>171</ele>
        <time>2015-01-25T11:11:18.000Z</time>
      </trkpt>
      <trkpt lat="48.68991" lon="1.73501">
        <ele>171</ele>
        <time>2015-01-25T11:11:27.000Z</time>
      </trkpt>
      <trkpt lat="48.68978" lon="1.73485">
        <ele>171</ele>
        <time>2015-01-25T11:11:38.000Z</time>
      </trkpt>
      <trkpt lat="48.6897" lon="1.73475">
        <ele>171</ele>
        <time>2015-01-25T11:11:46.000Z</time>
      </trkpt>
      <trkpt lat="48.6896" lon="1.73462">
        <ele>171</ele>
        <time>2015-01-25T11:11:55.000Z</time>
      </trkpt>
      <trkpt lat="48.68951" lon="1.73454">
        <ele>171</ele>
        <time>2015-01-25T11:12:03.000Z</time>
      </trkpt>
      <trkpt lat="48.68947" lon="1.73449">
        <ele>171</ele>
        <time>2015-01-25T11:12:10.000Z</time>
      </trkpt>
      <trkpt lat="48.6894" lon="1.73442">
        <ele>171</ele>
        <time>2015-01-25T11:12:41.000Z</time>
      </trkpt>
      <trkpt lat="48.68934" lon="1.73435">
        <ele>171</ele>
        <time>2015-01-25T11:12:47.000Z</time>
      </trkpt>
      <trkpt lat="48.6893" lon="1.73425">
        <ele>171</ele>
        <time>2015-01-25T11:12:54.000Z</time>
      </trkpt>
      <trkpt lat="48.68922" lon="1.73413">
        <ele>171.19999694824</ele>
        <time>2015-01-25T11:13:04.000Z</time>
      </trkpt>
      <trkpt lat="48.68914" lon="1.73404">
        <ele>171.19999694824</ele>
        <time>2015-01-25T11:13:12.000Z</time>
      </trkpt>
      <trkpt lat="48.68907" lon="1.73399">
        <ele>171.39999389648</ele>
        <time>2015-01-25T11:13:20.000Z</time>
      </trkpt>
      <trkpt lat="48.689" lon="1.73388">
        <ele>171.39999389648</ele>
        <time>2015-01-25T11:13:28.000Z</time>
      </trkpt>
      <trkpt lat="48.68893" lon="1.73378">
        <ele>171.60000610352</ele>
        <time>2015-01-25T11:13:36.000Z</time>
      </trkpt>
      <trkpt lat="48.68885" lon="1.73365">
        <ele>171.60000610352</ele>
        <time>2015-01-25T11:13:46.000Z</time>
      </trkpt>
      <trkpt lat="48.68876" lon="1.73355">
        <ele>171.80000305176</ele>
        <time>2015-01-25T11:13:55.000Z</time>
      </trkpt>
      <trkpt lat="48.68868" lon="1.73345">
        <ele>171.80000305176</ele>
        <time>2015-01-25T11:14:04.000Z</time>
      </trkpt>
      <trkpt lat="48.6886" lon="1.73335">
        <ele>172</ele>
        <time>2015-01-25T11:14:11.000Z</time>
      </trkpt>
      <trkpt lat="48.68851" lon="1.73324">
        <ele>171.80000305176</ele>
        <time>2015-01-25T11:14:20.000Z</time>
      </trkpt>
      <trkpt lat="48.68842" lon="1.73312">
        <ele>171.19999694824</ele>
        <time>2015-01-25T11:14:30.000Z</time>
      </trkpt>
      <trkpt lat="48.6883" lon="1.73296">
        <ele>170</ele>
        <time>2015-01-25T11:14:42.000Z</time>
      </trkpt>
      <trkpt lat="48.68821" lon="1.73285">
        <ele>169.19999694824</ele>
        <time>2015-01-25T11:14:51.000Z</time>
      </trkpt>
      <trkpt lat="48.68811" lon="1.73273">
        <ele>168.39999389648</ele>
        <time>2015-01-25T11:15:01.000Z</time>
      </trkpt>
      <trkpt lat="48.68803" lon="1.73263">
        <ele>167.80000305176</ele>
        <time>2015-01-25T11:15:09.000Z</time>
      </trkpt>
      <trkpt lat="48.68794" lon="1.73252">
        <ele>167</ele>
        <time>2015-01-25T11:15:18.000Z</time>
      </trkpt>
      <trkpt lat="48.68784" lon="1.73238">
        <ele>166</ele>
        <time>2015-01-25T11:15:28.000Z</time>
      </trkpt>
      <trkpt lat="48.68777" lon="1.73228">
        <ele>165.39999389648</ele>
        <time>2015-01-25T11:15:36.000Z</time>
      </trkpt>
      <trkpt lat="48.68768" lon="1.73215">
        <ele>165.19999694824</ele>
        <time>2015-01-25T11:15:46.000Z</time>
      </trkpt>
      <trkpt lat="48.68759" lon="1.73204">
        <ele>165.60000610352</ele>
        <time>2015-01-25T11:15:55.000Z</time>
      </trkpt>
      <trkpt lat="48.68752" lon="1.73195">
        <ele>165.80000305176</ele>
        <time>2015-01-25T11:16:03.000Z</time>
      </trkpt>
      <trkpt lat="48.68745" lon="1.73187">
        <ele>166.19999694824</ele>
        <time>2015-01-25T11:16:10.000Z</time>
      </trkpt>
      <trkpt lat="48.68736" lon="1.73179">
        <ele>166.60000610352</ele>
        <time>2015-01-25T11:16:17.000Z</time>
      </trkpt>
      <trkpt lat="48.68728" lon="1.73164">
        <ele>167</ele>
        <time>2015-01-25T11:16:26.000Z</time>
      </trkpt>
      <trkpt lat="48.68721" lon="1.73153">
        <ele>167.39999389648</ele>
        <time>2015-01-25T11:16:33.000Z</time>
      </trkpt>
      <trkpt lat="48.68716" lon="1.73142">
        <ele>168</ele>
        <time>2015-01-25T11:16:40.000Z</time>
      </trkpt>
      <trkpt lat="48.68708" lon="1.73131">
        <ele>168.80000305176</ele>
        <time>2015-01-25T11:16:48.000Z</time>
      </trkpt>
      <trkpt lat="48.68701" lon="1.7312">
        <ele>169.60000610352</ele>
        <time>2015-01-25T11:16:56.000Z</time>
      </trkpt>
      <trkpt lat="48.687" lon="1.73118">
        <ele>169.60000610352</ele>
        <time>2015-01-25T11:16:57.000Z</time>
      </trkpt>
      <trkpt lat="48.687" lon="1.73105">
        <ele>170</ele>
        <time>2015-01-25T11:17:04.000Z</time>
      </trkpt>
      <trkpt lat="48.687" lon="1.73102">
        <ele>170.19999694824</ele>
        <time>2015-01-25T11:17:07.000Z</time>
      </trkpt>
      <trkpt lat="48.68697" lon="1.73098">
        <ele>170.60000610352</ele>
        <time>2015-01-25T11:17:11.000Z</time>
      </trkpt>
      <trkpt lat="48.68694" lon="1.73098">
        <ele>170.60000610352</ele>
        <time>2015-01-25T11:17:13.000Z</time>
      </trkpt>
      <trkpt lat="48.6869" lon="1.73101">
        <ele>170.80000305176</ele>
        <time>2015-01-25T11:17:17.000Z</time>
      </trkpt>
      <trkpt lat="48.68684" lon="1.73106">
        <ele>170.60000610352</ele>
        <time>2015-01-25T11:17:24.000Z</time>
      </trkpt>
      <trkpt lat="48.68675" lon="1.73106">
        <ele>170.39999389648</ele>
        <time>2015-01-25T11:17:31.000Z</time>
      </trkpt>
      <trkpt lat="48.68662" lon="1.73113">
        <ele>169.60000610352</ele>
        <time>2015-01-25T11:17:41.000Z</time>
      </trkpt>
      <trkpt lat="48.68655" lon="1.73116">
        <ele>169.19999694824</ele>
        <time>2015-01-25T11:17:48.000Z</time>
      </trkpt>
      <trkpt lat="48.68648" lon="1.7312">
        <ele>169</ele>
        <time>2015-01-25T11:17:55.000Z</time>
      </trkpt>
      <trkpt lat="48.68642" lon="1.73128">
        <ele>169.19999694824</ele>
        <time>2015-01-25T11:18:03.000Z</time>
      </trkpt>
      <trkpt lat="48.68641" lon="1.73129">
        <ele>169.19999694824</ele>
        <time>2015-01-25T11:18:04.000Z</time>
      </trkpt>
      <trkpt lat="48.68627" lon="1.73134">
        <ele>169.39999389648</ele>
        <time>2015-01-25T11:18:15.000Z</time>
      </trkpt>
      <trkpt lat="48.68618" lon="1.73138">
        <ele>169.60000610352</ele>
        <time>2015-01-25T11:18:22.000Z</time>
      </trkpt>
      <trkpt lat="48.68604" lon="1.73144">
        <ele>169.80000305176</ele>
        <time>2015-01-25T11:18:33.000Z</time>
      </trkpt>
      <trkpt lat="48.68593" lon="1.73147">
        <ele>169.60000610352</ele>
        <time>2015-01-25T11:18:42.000Z</time>
      </trkpt>
      <trkpt lat="48.68592" lon="1.73147">
        <ele>169.60000610352</ele>
        <time>2015-01-25T11:18:43.000Z</time>
      </trkpt>
      <trkpt lat="48.68581" lon="1.73154">
        <ele>169</ele>
        <time>2015-01-25T11:18:52.000Z</time>
      </trkpt>
      <trkpt lat="48.68572" lon="1.73156">
        <ele>168.39999389648</ele>
        <time>2015-01-25T11:18:59.000Z</time>
      </trkpt>
      <trkpt lat="48.68563" lon="1.73162">
        <ele>167.60000610352</ele>
        <time>2015-01-25T11:19:06.000Z</time>
      </trkpt>
      <trkpt lat="48.68553" lon="1.73163">
        <ele>167.19999694824</ele>
        <time>2015-01-25T11:19:14.000Z</time>
      </trkpt>
      <trkpt lat="48.6855" lon="1.73154">
        <ele>167.39999389648</ele>
        <time>2015-01-25T11:19:20.000Z</time>
      </trkpt>
      <trkpt lat="48.68546" lon="1.73141">
        <ele>167.39999389648</ele>
        <time>2015-01-25T11:19:28.000Z</time>
      </trkpt>
      <trkpt lat="48.68543" lon="1.73123">
        <ele>167.39999389648</ele>
        <time>2015-01-25T11:19:38.000Z</time>
      </trkpt>
      <trkpt lat="48.68541" lon="1.73109">
        <ele>167.60000610352</ele>
        <time>2015-01-25T11:19:46.000Z</time>
      </trkpt>
      <trkpt lat="48.68539" lon="1.73094">
        <ele>167.60000610352</ele>
        <time>2015-01-25T11:19:55.000Z</time>
      </trkpt>
      <trkpt lat="48.68538" lon="1.73082">
        <ele>167.60000610352</ele>
        <time>2015-01-25T11:20:02.000Z</time>
      </trkpt>
      <trkpt lat="48.68538" lon="1.7308">
        <ele>167.60000610352</ele>
        <time>2015-01-25T11:20:03.000Z</time>
      </trkpt>
      <trkpt lat="48.68536" lon="1.73066">
        <ele>167.39999389648</ele>
        <time>2015-01-25T11:20:11.000Z</time>
      </trkpt>
      <trkpt lat="48.68533" lon="1.73051">
        <ele>167.60000610352</ele>
        <time>2015-01-25T11:20:20.000Z</time>
      </trkpt>
      <trkpt lat="48.68531" lon="1.73035">
        <ele>167.60000610352</ele>
        <time>2015-01-25T11:20:28.000Z</time>
      </trkpt>
      <trkpt lat="48.68526" lon="1.73013">
        <ele>167.80000305176</ele>
        <time>2015-01-25T11:20:38.000Z</time>
      </trkpt>
      <trkpt lat="48.68523" lon="1.72992">
        <ele>168</ele>
        <time>2015-01-25T11:20:49.000Z</time>
      </trkpt>
      <trkpt lat="48.68522" lon="1.72975">
        <ele>168.60000610352</ele>
        <time>2015-01-25T11:20:58.000Z</time>
      </trkpt>
      <trkpt lat="48.6852" lon="1.72956">
        <ele>169.19999694824</ele>
        <time>2015-01-25T11:21:08.000Z</time>
      </trkpt>
      <trkpt lat="48.68519" lon="1.72942">
        <ele>169.60000610352</ele>
        <time>2015-01-25T11:21:15.000Z</time>
      </trkpt>
      <trkpt lat="48.68519" lon="1.72927">
        <ele>170.19999694824</ele>
        <time>2015-01-25T11:21:23.000Z</time>
      </trkpt>
      <trkpt lat="48.68517" lon="1.7291">
        <ele>170.80000305176</ele>
        <time>2015-01-25T11:21:32.000Z</time>
      </trkpt>
      <trkpt lat="48.68517" lon="1.72891">
        <ele>171.39999389648</ele>
        <time>2015-01-25T11:21:42.000Z</time>
      </trkpt>
      <trkpt lat="48.68515" lon="1.72875">
        <ele>172</ele>
        <time>2015-01-25T11:21:51.000Z</time>
      </trkpt>
      <trkpt lat="48.68513" lon="1.72854">
        <ele>172.80000305176</ele>
        <time>2015-01-25T11:22:01.000Z</time>
      </trkpt>
      <trkpt lat="48.68515" lon="1.72842">
        <ele>173.19999694824</ele>
        <time>2015-01-25T11:22:08.000Z</time>
      </trkpt>
      <trkpt lat="48.68516" lon="1.72839">
        <ele>173.39999389648</ele>
        <time>2015-01-25T11:22:10.000Z</time>
      </trkpt>
      <trkpt lat="48.68516" lon="1.7282">
        <ele>174</ele>
        <time>2015-01-25T11:22:19.000Z</time>
      </trkpt>
      <trkpt lat="48.68514" lon="1.72806">
        <ele>174.19999694824</ele>
        <time>2015-01-25T11:22:27.000Z</time>
      </trkpt>
      <trkpt lat="48.68513" lon="1.72791">
        <ele>174.19999694824</ele>
        <time>2015-01-25T11:22:35.000Z</time>
      </trkpt>
      <trkpt lat="48.68512" lon="1.72786">
        <ele>174.19999694824</ele>
        <time>2015-01-25T11:22:38.000Z</time>
      </trkpt>
      <trkpt lat="48.68507" lon="1.72787">
        <ele>174.39999389648</ele>
        <time>2015-01-25T11:22:46.000Z</time>
      </trkpt>
      <trkpt lat="48.68503" lon="1.72798">
        <ele>174.39999389648</ele>
        <time>2015-01-25T11:22:55.000Z</time>
      </trkpt>
      <trkpt lat="48.68497" lon="1.72802">
        <ele>174.39999389648</ele>
        <time>2015-01-25T11:23:01.000Z</time>
      </trkpt>
      <trkpt lat="48.6849" lon="1.72804">
        <ele>174.39999389648</ele>
        <time>2015-01-25T11:23:07.000Z</time>
      </trkpt>
      <trkpt lat="48.6848" lon="1.72811">
        <ele>174.19999694824</ele>
        <time>2015-01-25T11:23:17.000Z</time>
      </trkpt>
      <trkpt lat="48.68471" lon="1.72816">
        <ele>174.19999694824</ele>
        <time>2015-01-25T11:23:27.000Z</time>
      </trkpt>
      <trkpt lat="48.68461" lon="1.72823">
        <ele>173.80000305176</ele>
        <time>2015-01-25T11:23:35.000Z</time>
      </trkpt>
      <trkpt lat="48.68452" lon="1.72833">
        <ele>173.60000610352</ele>
        <time>2015-01-25T11:23:45.000Z</time>
      </trkpt>
      <trkpt lat="48.68444" lon="1.72841">
        <ele>173.80000305176</ele>
        <time>2015-01-25T11:23:52.000Z</time>
      </trkpt>
      <trkpt lat="48.68436" lon="1.7285">
        <ele>174</ele>
        <time>2015-01-25T11:24:00.000Z</time>
      </trkpt>
      <trkpt lat="48.68427" lon="1.7286">
        <ele>174</ele>
        <time>2015-01-25T11:24:08.000Z</time>
      </trkpt>
      <trkpt lat="48.68417" lon="1.72869">
        <ele>174</ele>
        <time>2015-01-25T11:24:17.000Z</time>
      </trkpt>
      <trkpt lat="48.68407" lon="1.72873">
        <ele>174</ele>
        <time>2015-01-25T11:24:24.000Z</time>
      </trkpt>
      <trkpt lat="48.68398" lon="1.72878">
        <ele>174.39999389648</ele>
        <time>2015-01-25T11:24:32.000Z</time>
      </trkpt>
      <trkpt lat="48.68388" lon="1.72885">
        <ele>174.60000610352</ele>
        <time>2015-01-25T11:24:40.000Z</time>
      </trkpt>
      <trkpt lat="48.68379" lon="1.72896">
        <ele>175.19999694824</ele>
        <time>2015-01-25T11:24:48.000Z</time>
      </trkpt>
      <trkpt lat="48.6837" lon="1.72905">
        <ele>175.60000610352</ele>
        <time>2015-01-25T11:24:55.000Z</time>
      </trkpt>
      <trkpt lat="48.68359" lon="1.72912">
        <ele>175.60000610352</ele>
        <time>2015-01-25T11:25:04.000Z</time>
      </trkpt>
      <trkpt lat="48.68351" lon="1.72918">
        <ele>175.39999389648</ele>
        <time>2015-01-25T11:25:12.000Z</time>
      </trkpt>
      <trkpt lat="48.68338" lon="1.72931">
        <ele>174.80000305176</ele>
        <time>2015-01-25T11:25:23.000Z</time>
      </trkpt>
      <trkpt lat="48.68328" lon="1.72939">
        <ele>174.39999389648</ele>
        <time>2015-01-25T11:25:31.000Z</time>
      </trkpt>
      <trkpt lat="48.68316" lon="1.7295">
        <ele>174</ele>
        <time>2015-01-25T11:25:42.000Z</time>
      </trkpt>
      <trkpt lat="48.68303" lon="1.72961">
        <ele>173.60000610352</ele>
        <time>2015-01-25T11:25:53.000Z</time>
      </trkpt>
      <trkpt lat="48.68293" lon="1.72972">
        <ele>173.39999389648</ele>
        <time>2015-01-25T11:26:02.000Z</time>
      </trkpt>
      <trkpt lat="48.6828" lon="1.7298">
        <ele>173.19999694824</ele>
        <time>2015-01-25T11:26:12.000Z</time>
      </trkpt>
      <trkpt lat="48.68278" lon="1.72983">
        <ele>173.19999694824</ele>
        <time>2015-01-25T11:26:14.000Z</time>
      </trkpt>
      <trkpt lat="48.68268" lon="1.72991">
        <ele>173.19999694824</ele>
        <time>2015-01-25T11:26:21.000Z</time>
      </trkpt>
      <trkpt lat="48.68258" lon="1.73">
        <ele>173.60000610352</ele>
        <time>2015-01-25T11:26:28.000Z</time>
      </trkpt>
      <trkpt lat="48.68251" lon="1.73008">
        <ele>174</ele>
        <time>2015-01-25T11:26:35.000Z</time>
      </trkpt>
      <trkpt lat="48.6825" lon="1.73009">
        <ele>174</ele>
        <time>2015-01-25T11:26:36.000Z</time>
      </trkpt>
      <trkpt lat="48.68245" lon="1.73015">
        <ele>174.19999694824</ele>
        <time>2015-01-25T11:26:43.000Z</time>
      </trkpt>
      <trkpt lat="48.68229" lon="1.73027">
        <ele>175</ele>
        <time>2015-01-25T11:26:50.000Z</time>
      </trkpt>
      <trkpt lat="48.6821" lon="1.73043">
        <ele>174.60000610352</ele>
        <time>2015-01-25T11:26:57.000Z</time>
      </trkpt>
      <trkpt lat="48.68186" lon="1.73065">
        <ele>174</ele>
        <time>2015-01-25T11:27:07.000Z</time>
      </trkpt>
      <trkpt lat="48.68177" lon="1.73076">
        <ele>174</ele>
        <time>2015-01-25T11:27:12.000Z</time>
      </trkpt>
      <trkpt lat="48.6817" lon="1.7308">
        <ele>174</ele>
        <time>2015-01-25T11:27:17.000Z</time>
      </trkpt>
      <trkpt lat="48.68161" lon="1.73086">
        <ele>174</ele>
        <time>2015-01-25T11:27:25.000Z</time>
      </trkpt>
      <trkpt lat="48.68157" lon="1.73091">
        <ele>174</ele>
        <time>2015-01-25T11:27:29.000Z</time>
      </trkpt>
      <trkpt lat="48.68146" lon="1.73098">
        <ele>174</ele>
        <time>2015-01-25T11:27:38.000Z</time>
      </trkpt>
      <trkpt lat="48.68135" lon="1.7311">
        <ele>174</ele>
        <time>2015-01-25T11:27:48.000Z</time>
      </trkpt>
      <trkpt lat="48.6813" lon="1.73114">
        <ele>174</ele>
        <time>2015-01-25T11:27:52.000Z</time>
      </trkpt>
      <trkpt lat="48.6812" lon="1.73122">
        <ele>174</ele>
        <time>2015-01-25T11:28:00.000Z</time>
      </trkpt>
      <trkpt lat="48.68111" lon="1.7313">
        <ele>174</ele>
        <time>2015-01-25T11:28:08.000Z</time>
      </trkpt>
      <trkpt lat="48.68102" lon="1.73137">
        <ele>174</ele>
        <time>2015-01-25T11:28:16.000Z</time>
      </trkpt>
      <trkpt lat="48.68094" lon="1.73143">
        <ele>174.39999389648</ele>
        <time>2015-01-25T11:28:23.000Z</time>
      </trkpt>
      <trkpt lat="48.68093" lon="1.73143">
        <ele>174.39999389648</ele>
        <time>2015-01-25T11:28:26.000Z</time>
      </trkpt>
      <trkpt lat="48.68088" lon="1.73146">
        <ele>174.60000610352</ele>
        <time>2015-01-25T11:28:34.000Z</time>
      </trkpt>
      <trkpt lat="48.68081" lon="1.73154">
        <ele>174.80000305176</ele>
        <time>2015-01-25T11:28:40.000Z</time>
      </trkpt>
      <trkpt lat="48.68077" lon="1.73158">
        <ele>175.19999694824</ele>
        <time>2015-01-25T11:28:44.000Z</time>
      </trkpt>
      <trkpt lat="48.68074" lon="1.73165">
        <ele>175.60000610352</ele>
        <time>2015-01-25T11:28:49.000Z</time>
      </trkpt>
      <trkpt lat="48.68062" lon="1.73172">
        <ele>176.39999389648</ele>
        <time>2015-01-25T11:28:59.000Z</time>
      </trkpt>
      <trkpt lat="48.68053" lon="1.73178">
        <ele>177</ele>
        <time>2015-01-25T11:29:07.000Z</time>
      </trkpt>
      <trkpt lat="48.68045" lon="1.73188">
        <ele>177.39999389648</ele>
        <time>2015-01-25T11:29:15.000Z</time>
      </trkpt>
      <trkpt lat="48.68041" lon="1.73193">
        <ele>177.39999389648</ele>
        <time>2015-01-25T11:29:20.000Z</time>
      </trkpt>
      <trkpt lat="48.68032" lon="1.73197">
        <ele>177.60000610352</ele>
        <time>2015-01-25T11:29:28.000Z</time>
      </trkpt>
      <trkpt lat="48.68022" lon="1.73206">
        <ele>177.60000610352</ele>
        <time>2015-01-25T11:29:37.000Z</time>
      </trkpt>
      <trkpt lat="48.68016" lon="1.73211">
        <ele>177.80000305176</ele>
        <time>2015-01-25T11:29:42.000Z</time>
      </trkpt>
      <trkpt lat="48.68009" lon="1.73218">
        <ele>178</ele>
        <time>2015-01-25T11:29:49.000Z</time>
      </trkpt>
      <trkpt lat="48.68" lon="1.73227">
        <ele>178</ele>
        <time>2015-01-25T11:29:58.000Z</time>
      </trkpt>
      <trkpt lat="48.67991" lon="1.73233">
        <ele>178</ele>
        <time>2015-01-25T11:30:05.000Z</time>
      </trkpt>
      <trkpt lat="48.67981" lon="1.73243">
        <ele>177.80000305176</ele>
        <time>2015-01-25T11:30:15.000Z</time>
      </trkpt>
      <trkpt lat="48.67973" lon="1.73251">
        <ele>177.60000610352</ele>
        <time>2015-01-25T11:30:22.000Z</time>
      </trkpt>
      <trkpt lat="48.67972" lon="1.73252">
        <ele>177.60000610352</ele>
        <time>2015-01-25T11:30:23.000Z</time>
      </trkpt>
      <trkpt lat="48.67967" lon="1.73255">
        <ele>177.60000610352</ele>
        <time>2015-01-25T11:30:27.000Z</time>
      </trkpt>
      <trkpt lat="48.67954" lon="1.73266">
        <ele>177.39999389648</ele>
        <time>2015-01-25T11:30:38.000Z</time>
      </trkpt>
      <trkpt lat="48.67945" lon="1.73271">
        <ele>177.39999389648</ele>
        <time>2015-01-25T11:30:46.000Z</time>
      </trkpt>
      <trkpt lat="48.67935" lon="1.7328">
        <ele>177.39999389648</ele>
        <time>2015-01-25T11:30:55.000Z</time>
      </trkpt>
      <trkpt lat="48.67921" lon="1.73291">
        <ele>177.60000610352</ele>
        <time>2015-01-25T11:31:07.000Z</time>
      </trkpt>
      <trkpt lat="48.67919" lon="1.73292">
        <ele>177.60000610352</ele>
        <time>2015-01-25T11:31:08.000Z</time>
      </trkpt>
      <trkpt lat="48.67915" lon="1.73298">
        <ele>177.60000610352</ele>
        <time>2015-01-25T11:31:13.000Z</time>
      </trkpt>
      <trkpt lat="48.67912" lon="1.73302">
        <ele>177.60000610352</ele>
        <time>2015-01-25T11:31:16.000Z</time>
      </trkpt>
      <trkpt lat="48.67903" lon="1.73308">
        <ele>177.60000610352</ele>
        <time>2015-01-25T11:31:25.000Z</time>
      </trkpt>
      <trkpt lat="48.67898" lon="1.73314">
        <ele>177.60000610352</ele>
        <time>2015-01-25T11:31:31.000Z</time>
      </trkpt>
      <trkpt lat="48.6789" lon="1.73321">
        <ele>177.60000610352</ele>
        <time>2015-01-25T11:31:39.000Z</time>
      </trkpt>
      <trkpt lat="48.6788" lon="1.73328">
        <ele>177.60000610352</ele>
        <time>2015-01-25T11:31:48.000Z</time>
      </trkpt>
      <trkpt lat="48.67871" lon="1.73336">
        <ele>177.60000610352</ele>
        <time>2015-01-25T11:31:56.000Z</time>
      </trkpt>
      <trkpt lat="48.67862" lon="1.73344">
        <ele>178</ele>
        <time>2015-01-25T11:32:04.000Z</time>
      </trkpt>
      <trkpt lat="48.67853" lon="1.73352">
        <ele>178.39999389648</ele>
        <time>2015-01-25T11:32:11.000Z</time>
      </trkpt>
      <trkpt lat="48.67846" lon="1.73358">
        <ele>178.39999389648</ele>
        <time>2015-01-25T11:32:18.000Z</time>
      </trkpt>
      <trkpt lat="48.67837" lon="1.73366">
        <ele>178.60000610352</ele>
        <time>2015-01-25T11:32:25.000Z</time>
      </trkpt>
      <trkpt lat="48.67826" lon="1.73373">
        <ele>178.60000610352</ele>
        <time>2015-01-25T11:32:35.000Z</time>
      </trkpt>
      <trkpt lat="48.6782" lon="1.7338">
        <ele>179</ele>
        <time>2015-01-25T11:32:42.000Z</time>
      </trkpt>
      <trkpt lat="48.67813" lon="1.73386">
        <ele>179.60000610352</ele>
        <time>2015-01-25T11:32:50.000Z</time>
      </trkpt>
      <trkpt lat="48.67804" lon="1.73396">
        <ele>180.39999389648</ele>
        <time>2015-01-25T11:32:58.000Z</time>
      </trkpt>
      <trkpt lat="48.67803" lon="1.73398">
        <ele>180.60000610352</ele>
        <time>2015-01-25T11:32:59.000Z</time>
      </trkpt>
      <trkpt lat="48.67804" lon="1.73403">
        <ele>180.80000305176</ele>
        <time>2015-01-25T11:33:02.000Z</time>
      </trkpt>
      <trkpt lat="48.67808" lon="1.73408">
        <ele>180.80000305176</ele>
        <time>2015-01-25T11:33:06.000Z</time>
      </trkpt>
      <trkpt lat="48.67814" lon="1.73419">
        <ele>180.80000305176</ele>
        <time>2015-01-25T11:33:15.000Z</time>
      </trkpt>
      <trkpt lat="48.67819" lon="1.73427">
        <ele>180.80000305176</ele>
        <time>2015-01-25T11:33:21.000Z</time>
      </trkpt>
      <trkpt lat="48.67822" lon="1.73431">
        <ele>180.80000305176</ele>
        <time>2015-01-25T11:33:24.000Z</time>
      </trkpt>
      <trkpt lat="48.67825" lon="1.73435">
        <ele>180.80000305176</ele>
        <time>2015-01-25T11:33:28.000Z</time>
      </trkpt>
      <trkpt lat="48.67832" lon="1.7344">
        <ele>180.60000610352</ele>
        <time>2015-01-25T11:33:34.000Z</time>
      </trkpt>
      <trkpt lat="48.67841" lon="1.73448">
        <ele>180.60000610352</ele>
        <time>2015-01-25T11:33:42.000Z</time>
      </trkpt>
      <trkpt lat="48.67849" lon="1.73455">
        <ele>180.39999389648</ele>
        <time>2015-01-25T11:33:48.000Z</time>
      </trkpt>
      <trkpt lat="48.67853" lon="1.73461">
        <ele>180.39999389648</ele>
        <time>2015-01-25T11:33:52.000Z</time>
      </trkpt>
      <trkpt lat="48.67862" lon="1.73471">
        <ele>180.19999694824</ele>
        <time>2015-01-25T11:34:00.000Z</time>
      </trkpt>
      <trkpt lat="48.67872" lon="1.73482">
        <ele>180.19999694824</ele>
        <time>2015-01-25T11:34:08.000Z</time>
      </trkpt>
      <trkpt lat="48.67877" lon="1.73492">
        <ele>180.19999694824</ele>
        <time>2015-01-25T11:34:15.000Z</time>
      </trkpt>
      <trkpt lat="48.67882" lon="1.73498">
        <ele>180.19999694824</ele>
        <time>2015-01-25T11:34:20.000Z</time>
      </trkpt>
      <trkpt lat="48.67883" lon="1.73501">
        <ele>180</ele>
        <time>2015-01-25T11:34:22.000Z</time>
      </trkpt>
      <trkpt lat="48.67887" lon="1.73505">
        <ele>180</ele>
        <time>2015-01-25T11:34:26.000Z</time>
      </trkpt>
      <trkpt lat="48.67896" lon="1.73513">
        <ele>179.80000305176</ele>
        <time>2015-01-25T11:34:33.000Z</time>
      </trkpt>
      <trkpt lat="48.67906" lon="1.73527">
        <ele>179.60000610352</ele>
        <time>2015-01-25T11:34:42.000Z</time>
      </trkpt>
      <trkpt lat="48.67915" lon="1.7354">
        <ele>179.39999389648</ele>
        <time>2015-01-25T11:34:50.000Z</time>
      </trkpt>
      <trkpt lat="48.6792" lon="1.73546">
        <ele>179.19999694824</ele>
        <time>2015-01-25T11:34:54.000Z</time>
      </trkpt>
      <trkpt lat="48.67927" lon="1.73558">
        <ele>179.19999694824</ele>
        <time>2015-01-25T11:35:01.000Z</time>
      </trkpt>
      <trkpt lat="48.67932" lon="1.73568">
        <ele>179</ele>
        <time>2015-01-25T11:35:07.000Z</time>
      </trkpt>
      <trkpt lat="48.6794" lon="1.7358">
        <ele>179</ele>
        <time>2015-01-25T11:35:15.000Z</time>
      </trkpt>
      <trkpt lat="48.67949" lon="1.73592">
        <ele>178.80000305176</ele>
        <time>2015-01-25T11:35:23.000Z</time>
      </trkpt>
      <trkpt lat="48.67955" lon="1.736">
        <ele>178.60000610352</ele>
        <time>2015-01-25T11:35:29.000Z</time>
      </trkpt>
      <trkpt lat="48.67961" lon="1.73608">
        <ele>178.60000610352</ele>
        <time>2015-01-25T11:35:35.000Z</time>
      </trkpt>
      <trkpt lat="48.67969" lon="1.73619">
        <ele>178.39999389648</ele>
        <time>2015-01-25T11:35:43.000Z</time>
      </trkpt>
      <trkpt lat="48.67973" lon="1.73626">
        <ele>178.39999389648</ele>
        <time>2015-01-25T11:35:48.000Z</time>
      </trkpt>
      <trkpt lat="48.67979" lon="1.73635">
        <ele>178.19999694824</ele>
        <time>2015-01-25T11:35:54.000Z</time>
      </trkpt>
      <trkpt lat="48.67988" lon="1.73646">
        <ele>178</ele>
        <time>2015-01-25T11:36:02.000Z</time>
      </trkpt>
      <trkpt lat="48.67993" lon="1.73657">
        <ele>178</ele>
        <time>2015-01-25T11:36:09.000Z</time>
      </trkpt>
      <trkpt lat="48.68003" lon="1.73668">
        <ele>177.60000610352</ele>
        <time>2015-01-25T11:36:17.000Z</time>
      </trkpt>
      <trkpt lat="48.68009" lon="1.73679">
        <ele>177.39999389648</ele>
        <time>2015-01-25T11:36:24.000Z</time>
      </trkpt>
      <trkpt lat="48.68012" lon="1.73687">
        <ele>177.19999694824</ele>
        <time>2015-01-25T11:36:29.000Z</time>
      </trkpt>
      <trkpt lat="48.68013" lon="1.73692">
        <ele>177.19999694824</ele>
        <time>2015-01-25T11:36:32.000Z</time>
      </trkpt>
      <trkpt lat="48.68022" lon="1.73699">
        <ele>176.80000305176</ele>
        <time>2015-01-25T11:36:38.000Z</time>
      </trkpt>
      <trkpt lat="48.68027" lon="1.73708">
        <ele>176.60000610352</ele>
        <time>2015-01-25T11:36:44.000Z</time>
      </trkpt>
      <trkpt lat="48.68035" lon="1.73722">
        <ele>176</ele>
        <time>2015-01-25T11:36:52.000Z</time>
      </trkpt>
      <trkpt lat="48.68044" lon="1.73733">
        <ele>175.60000610352</ele>
        <time>2015-01-25T11:37:01.000Z</time>
      </trkpt>
      <trkpt lat="48.68055" lon="1.73745">
        <ele>174.80000305176</ele>
        <time>2015-01-25T11:37:10.000Z</time>
      </trkpt>
      <trkpt lat="48.68064" lon="1.73754">
        <ele>174.19999694824</ele>
        <time>2015-01-25T11:37:17.000Z</time>
      </trkpt>
      <trkpt lat="48.68065" lon="1.73755">
        <ele>174</ele>
        <time>2015-01-25T11:37:18.000Z</time>
      </trkpt>
      <trkpt lat="48.68072" lon="1.73763">
        <ele>173.60000610352</ele>
        <time>2015-01-25T11:37:23.000Z</time>
      </trkpt>
      <trkpt lat="48.68079" lon="1.73775">
        <ele>173</ele>
        <time>2015-01-25T11:37:31.000Z</time>
      </trkpt>
      <trkpt lat="48.6808" lon="1.73777">
        <ele>173</ele>
        <time>2015-01-25T11:37:32.000Z</time>
      </trkpt>
      <trkpt lat="48.68084" lon="1.73784">
        <ele>172.60000610352</ele>
        <time>2015-01-25T11:37:35.000Z</time>
      </trkpt>
      <trkpt lat="48.6809" lon="1.7379">
        <ele>172.19999694824</ele>
        <time>2015-01-25T11:37:39.000Z</time>
      </trkpt>
      <trkpt lat="48.68097" lon="1.73798">
        <ele>171.60000610352</ele>
        <time>2015-01-25T11:37:44.000Z</time>
      </trkpt>
      <trkpt lat="48.68104" lon="1.73808">
        <ele>171.19999694824</ele>
        <time>2015-01-25T11:37:51.000Z</time>
      </trkpt>
      <trkpt lat="48.68109" lon="1.73814">
        <ele>171</ele>
        <time>2015-01-25T11:37:55.000Z</time>
      </trkpt>
      <trkpt lat="48.68117" lon="1.73824">
        <ele>170.60000610352</ele>
        <time>2015-01-25T11:38:03.000Z</time>
      </trkpt>
      <trkpt lat="48.68129" lon="1.73839">
        <ele>170</ele>
        <time>2015-01-25T11:38:13.000Z</time>
      </trkpt>
      <trkpt lat="48.68136" lon="1.7385">
        <ele>169.60000610352</ele>
        <time>2015-01-25T11:38:20.000Z</time>
      </trkpt>
      <trkpt lat="48.68141" lon="1.73864">
        <ele>169.19999694824</ele>
        <time>2015-01-25T11:38:28.000Z</time>
      </trkpt>
      <trkpt lat="48.68146" lon="1.73875">
        <ele>169</ele>
        <time>2015-01-25T11:38:34.000Z</time>
      </trkpt>
      <trkpt lat="48.68154" lon="1.73884">
        <ele>168.60000610352</ele>
        <time>2015-01-25T11:38:41.000Z</time>
      </trkpt>
      <trkpt lat="48.68157" lon="1.73888">
        <ele>168.39999389648</ele>
        <time>2015-01-25T11:38:44.000Z</time>
      </trkpt>
      <trkpt lat="48.68164" lon="1.739">
        <ele>168</ele>
        <time>2015-01-25T11:38:51.000Z</time>
      </trkpt>
      <trkpt lat="48.68172" lon="1.73911">
        <ele>167.60000610352</ele>
        <time>2015-01-25T11:38:58.000Z</time>
      </trkpt>
      <trkpt lat="48.68177" lon="1.73915">
        <ele>167.39999389648</ele>
        <time>2015-01-25T11:39:01.000Z</time>
      </trkpt>
      <trkpt lat="48.68178" lon="1.73918">
        <ele>167.39999389648</ele>
        <time>2015-01-25T11:39:03.000Z</time>
      </trkpt>
      <trkpt lat="48.68183" lon="1.73925">
        <ele>167.19999694824</ele>
        <time>2015-01-25T11:39:08.000Z</time>
      </trkpt>
      <trkpt lat="48.68191" lon="1.73938">
        <ele>166.80000305176</ele>
        <time>2015-01-25T11:39:16.000Z</time>
      </trkpt>
      <trkpt lat="48.68198" lon="1.73949">
        <ele>166.80000305176</ele>
        <time>2015-01-25T11:39:23.000Z</time>
      </trkpt>
      <trkpt lat="48.68201" lon="1.73966">
        <ele>166.60000610352</ele>
        <time>2015-01-25T11:39:30.000Z</time>
      </trkpt>
      <trkpt lat="48.68203" lon="1.73969">
        <ele>166.60000610352</ele>
        <time>2015-01-25T11:39:32.000Z</time>
      </trkpt>
      <trkpt lat="48.68205" lon="1.73979">
        <ele>166.60000610352</ele>
        <time>2015-01-25T11:39:37.000Z</time>
      </trkpt>
      <trkpt lat="48.68208" lon="1.73991">
        <ele>166.39999389648</ele>
        <time>2015-01-25T11:39:43.000Z</time>
      </trkpt>
      <trkpt lat="48.68209" lon="1.74006">
        <ele>166.19999694824</ele>
        <time>2015-01-25T11:39:49.000Z</time>
      </trkpt>
      <trkpt lat="48.68211" lon="1.74024">
        <ele>166</ele>
        <time>2015-01-25T11:39:57.000Z</time>
      </trkpt>
      <trkpt lat="48.68214" lon="1.74036">
        <ele>165.80000305176</ele>
        <time>2015-01-25T11:40:04.000Z</time>
      </trkpt>
      <trkpt lat="48.68218" lon="1.74052">
        <ele>165.39999389648</ele>
        <time>2015-01-25T11:40:12.000Z</time>
      </trkpt>
      <trkpt lat="48.68222" lon="1.74071">
        <ele>165.19999694824</ele>
        <time>2015-01-25T11:40:20.000Z</time>
      </trkpt>
      <trkpt lat="48.68225" lon="1.74084">
        <ele>164.80000305176</ele>
        <time>2015-01-25T11:40:26.000Z</time>
      </trkpt>
      <trkpt lat="48.68229" lon="1.741">
        <ele>164.19999694824</ele>
        <time>2015-01-25T11:40:34.000Z</time>
      </trkpt>
      <trkpt lat="48.68234" lon="1.74111">
        <ele>163.80000305176</ele>
        <time>2015-01-25T11:40:40.000Z</time>
      </trkpt>
      <trkpt lat="48.68236" lon="1.74125">
        <ele>163.60000610352</ele>
        <time>2015-01-25T11:40:46.000Z</time>
      </trkpt>
      <trkpt lat="48.6824" lon="1.74139">
        <ele>163.39999389648</ele>
        <time>2015-01-25T11:40:53.000Z</time>
      </trkpt>
      <trkpt lat="48.6824" lon="1.74144">
        <ele>163.39999389648</ele>
        <time>2015-01-25T11:40:55.000Z</time>
      </trkpt>
      <trkpt lat="48.6824" lon="1.7416">
        <ele>163.39999389648</ele>
        <time>2015-01-25T11:41:02.000Z</time>
      </trkpt>
      <trkpt lat="48.68243" lon="1.74177">
        <ele>163.19999694824</ele>
        <time>2015-01-25T11:41:10.000Z</time>
      </trkpt>
      <trkpt lat="48.68245" lon="1.74194">
        <ele>163.19999694824</ele>
        <time>2015-01-25T11:41:17.000Z</time>
      </trkpt>
      <trkpt lat="48.68247" lon="1.74204">
        <ele>163</ele>
        <time>2015-01-25T11:41:21.000Z</time>
      </trkpt>
      <trkpt lat="48.68247" lon="1.7421">
        <ele>163.19999694824</ele>
        <time>2015-01-25T11:41:24.000Z</time>
      </trkpt>
      <trkpt lat="48.68248" lon="1.74221">
        <ele>163</ele>
        <time>2015-01-25T11:41:29.000Z</time>
      </trkpt>
      <trkpt lat="48.68249" lon="1.74231">
        <ele>163</ele>
        <time>2015-01-25T11:41:33.000Z</time>
      </trkpt>
      <trkpt lat="48.68254" lon="1.74239">
        <ele>162.80000305176</ele>
        <time>2015-01-25T11:41:37.000Z</time>
      </trkpt>
      <trkpt lat="48.68256" lon="1.7425">
        <ele>163</ele>
        <time>2015-01-25T11:41:42.000Z</time>
      </trkpt>
      <trkpt lat="48.68262" lon="1.74259">
        <ele>162.80000305176</ele>
        <time>2015-01-25T11:41:46.000Z</time>
      </trkpt>
      <trkpt lat="48.68268" lon="1.74278">
        <ele>163</ele>
        <time>2015-01-25T11:41:55.000Z</time>
      </trkpt>
      <trkpt lat="48.68271" lon="1.74291">
        <ele>163.19999694824</ele>
        <time>2015-01-25T11:42:01.000Z</time>
      </trkpt>
      <trkpt lat="48.6827" lon="1.74309">
        <ele>163.80000305176</ele>
        <time>2015-01-25T11:42:08.000Z</time>
      </trkpt>
      <trkpt lat="48.68274" lon="1.74321">
        <ele>163.80000305176</ele>
        <time>2015-01-25T11:42:15.000Z</time>
      </trkpt>
      <trkpt lat="48.68275" lon="1.74332">
        <ele>163.80000305176</ele>
        <time>2015-01-25T11:42:21.000Z</time>
      </trkpt>
      <trkpt lat="48.68275" lon="1.74341">
        <ele>163.80000305176</ele>
        <time>2015-01-25T11:42:25.000Z</time>
      </trkpt>
      <trkpt lat="48.68276" lon="1.74358">
        <ele>163.80000305176</ele>
        <time>2015-01-25T11:42:32.000Z</time>
      </trkpt>
      <trkpt lat="48.6828" lon="1.74372">
        <ele>163.60000610352</ele>
        <time>2015-01-25T11:42:38.000Z</time>
      </trkpt>
      <trkpt lat="48.68279" lon="1.74381">
        <ele>163.60000610352</ele>
        <time>2015-01-25T11:42:42.000Z</time>
      </trkpt>
      <trkpt lat="48.68284" lon="1.74391">
        <ele>163.39999389648</ele>
        <time>2015-01-25T11:42:48.000Z</time>
      </trkpt>
      <trkpt lat="48.68286" lon="1.74394">
        <ele>163.39999389648</ele>
        <time>2015-01-25T11:42:50.000Z</time>
      </trkpt>
      <trkpt lat="48.68287" lon="1.74412">
        <ele>163.19999694824</ele>
        <time>2015-01-25T11:42:58.000Z</time>
      </trkpt>
      <trkpt lat="48.68287" lon="1.74414">
        <ele>163</ele>
        <time>2015-01-25T11:42:59.000Z</time>
      </trkpt>
      <trkpt lat="48.68289" lon="1.74428">
        <ele>162.60000610352</ele>
        <time>2015-01-25T11:43:06.000Z</time>
      </trkpt>
      <trkpt lat="48.6829" lon="1.74432">
        <ele>162.60000610352</ele>
        <time>2015-01-25T11:43:08.000Z</time>
      </trkpt>
      <trkpt lat="48.68295" lon="1.74448">
        <ele>162.39999389648</ele>
        <time>2015-01-25T11:43:15.000Z</time>
      </trkpt>
      <trkpt lat="48.68295" lon="1.7445">
        <ele>162.39999389648</ele>
        <time>2015-01-25T11:43:16.000Z</time>
      </trkpt>
      <trkpt lat="48.68297" lon="1.74462">
        <ele>162.39999389648</ele>
        <time>2015-01-25T11:43:22.000Z</time>
      </trkpt>
      <trkpt lat="48.68297" lon="1.74463">
        <ele>162.39999389648</ele>
        <time>2015-01-25T11:43:23.000Z</time>
      </trkpt>
      <trkpt lat="48.68296" lon="1.74469">
        <ele>162.60000610352</ele>
        <time>2015-01-25T11:43:27.000Z</time>
      </trkpt>
      <trkpt lat="48.68295" lon="1.74471">
        <ele>162.60000610352</ele>
        <time>2015-01-25T11:43:29.000Z</time>
      </trkpt>
      <trkpt lat="48.68294" lon="1.74478">
        <ele>162.80000305176</ele>
        <time>2015-01-25T11:43:35.000Z</time>
      </trkpt>
      <trkpt lat="48.68295" lon="1.74491">
        <ele>162.80000305176</ele>
        <time>2015-01-25T11:43:42.000Z</time>
      </trkpt>
      <trkpt lat="48.68296" lon="1.74497">
        <ele>162.39999389648</ele>
        <time>2015-01-25T11:43:46.000Z</time>
      </trkpt>
      <trkpt lat="48.683" lon="1.74498">
        <ele>162</ele>
        <time>2015-01-25T11:43:53.000Z</time>
      </trkpt>
      <trkpt lat="48.69522" lon="1.76233">
        <ele>184</ele>
        <time>2015-01-25T12:14:54.000Z</time>
      </trkpt>
      <trkpt lat="48.69527" lon="1.76242">
        <ele>184</ele>
        <time>2015-01-25T12:14:59.000Z</time>
      </trkpt>
      <trkpt lat="48.69532" lon="1.76251">
        <ele>183.80000305176</ele>
        <time>2015-01-25T12:15:04.000Z</time>
      </trkpt>
      <trkpt lat="48.69537" lon="1.76258">
        <ele>183.80000305176</ele>
        <time>2015-01-25T12:15:09.000Z</time>
      </trkpt>
      <trkpt lat="48.69544" lon="1.76267">
        <ele>183.60000610352</ele>
        <time>2015-01-25T12:15:16.000Z</time>
      </trkpt>
      <trkpt lat="48.69544" lon="1.76268">
        <ele>183.60000610352</ele>
        <time>2015-01-25T12:15:17.000Z</time>
      </trkpt>
      <trkpt lat="48.69546" lon="1.76273">
        <ele>183.60000610352</ele>
        <time>2015-01-25T12:15:20.000Z</time>
      </trkpt>
      <trkpt lat="48.69553" lon="1.76283">
        <ele>183.39999389648</ele>
        <time>2015-01-25T12:15:27.000Z</time>
      </trkpt>
      <trkpt lat="48.69553" lon="1.76284">
        <ele>183.39999389648</ele>
        <time>2015-01-25T12:15:28.000Z</time>
      </trkpt>
      <trkpt lat="48.6956" lon="1.76296">
        <ele>183.39999389648</ele>
        <time>2015-01-25T12:15:36.000Z</time>
      </trkpt>
      <trkpt lat="48.69568" lon="1.76308">
        <ele>183.19999694824</ele>
        <time>2015-01-25T12:15:45.000Z</time>
      </trkpt>
      <trkpt lat="48.69571" lon="1.76314">
        <ele>183</ele>
        <time>2015-01-25T12:15:50.000Z</time>
      </trkpt>
      <trkpt lat="48.69576" lon="1.76323">
        <ele>183</ele>
        <time>2015-01-25T12:15:57.000Z</time>
      </trkpt>
      <trkpt lat="48.69581" lon="1.7633">
        <ele>182.80000305176</ele>
        <time>2015-01-25T12:16:02.000Z</time>
      </trkpt>
      <trkpt lat="48.69585" lon="1.76334">
        <ele>182.80000305176</ele>
        <time>2015-01-25T12:16:06.000Z</time>
      </trkpt>
      <trkpt lat="48.6959" lon="1.76343">
        <ele>182.80000305176</ele>
        <time>2015-01-25T12:16:13.000Z</time>
      </trkpt>
      <trkpt lat="48.69595" lon="1.76352">
        <ele>182.60000610352</ele>
        <time>2015-01-25T12:16:20.000Z</time>
      </trkpt>
      <trkpt lat="48.69598" lon="1.7636">
        <ele>182.60000610352</ele>
        <time>2015-01-25T12:16:25.000Z</time>
      </trkpt>
      <trkpt lat="48.69599" lon="1.76361">
        <ele>182.60000610352</ele>
        <time>2015-01-25T12:16:26.000Z</time>
      </trkpt>
      <trkpt lat="48.69608" lon="1.76374">
        <ele>182.39999389648</ele>
        <time>2015-01-25T12:16:35.000Z</time>
      </trkpt>
      <trkpt lat="48.69614" lon="1.76384">
        <ele>182.19999694824</ele>
        <time>2015-01-25T12:16:42.000Z</time>
      </trkpt>
      <trkpt lat="48.69614" lon="1.76385">
        <ele>182.19999694824</ele>
        <time>2015-01-25T12:16:43.000Z</time>
      </trkpt>
      <trkpt lat="48.6962" lon="1.76397">
        <ele>182</ele>
        <time>2015-01-25T12:16:51.000Z</time>
      </trkpt>
      <trkpt lat="48.69625" lon="1.76405">
        <ele>182</ele>
        <time>2015-01-25T12:16:58.000Z</time>
      </trkpt>
      <trkpt lat="48.69627" lon="1.76407">
        <ele>182</ele>
        <time>2015-01-25T12:17:00.000Z</time>
      </trkpt>
      <trkpt lat="48.69628" lon="1.76407">
        <ele>182</ele>
        <time>2015-01-25T12:17:03.000Z</time>
      </trkpt>
      <trkpt lat="48.69639" lon="1.76426">
        <ele>182</ele>
        <time>2015-01-25T12:17:35.000Z</time>
      </trkpt>
      <trkpt lat="48.69644" lon="1.76435">
        <ele>182</ele>
        <time>2015-01-25T12:17:40.000Z</time>
      </trkpt>
      <trkpt lat="48.69653" lon="1.7645">
        <ele>182</ele>
        <time>2015-01-25T12:17:49.000Z</time>
      </trkpt>
      <trkpt lat="48.69659" lon="1.76458">
        <ele>182</ele>
        <time>2015-01-25T12:17:55.000Z</time>
      </trkpt>
      <trkpt lat="48.69665" lon="1.76469">
        <ele>181.80000305176</ele>
        <time>2015-01-25T12:18:01.000Z</time>
      </trkpt>
      <trkpt lat="48.69672" lon="1.76481">
        <ele>181.80000305176</ele>
        <time>2015-01-25T12:18:10.000Z</time>
      </trkpt>
      <trkpt lat="48.69676" lon="1.76488">
        <ele>181.60000610352</ele>
        <time>2015-01-25T12:18:15.000Z</time>
      </trkpt>
      <trkpt lat="48.69679" lon="1.76494">
        <ele>181.39999389648</ele>
        <time>2015-01-25T12:18:19.000Z</time>
      </trkpt>
      <trkpt lat="48.69682" lon="1.765">
        <ele>181.39999389648</ele>
        <time>2015-01-25T12:18:22.000Z</time>
      </trkpt>
      <trkpt lat="48.6969" lon="1.76513">
        <ele>181.19999694824</ele>
        <time>2015-01-25T12:18:30.000Z</time>
      </trkpt>
      <trkpt lat="48.69693" lon="1.76521">
        <ele>181.19999694824</ele>
        <time>2015-01-25T12:18:36.000Z</time>
      </trkpt>
      <trkpt lat="48.69693" lon="1.76522">
        <ele>181.19999694824</ele>
        <time>2015-01-25T12:18:37.000Z</time>
      </trkpt>
      <trkpt lat="48.69696" lon="1.76527">
        <ele>181.19999694824</ele>
        <time>2015-01-25T12:19:06.000Z</time>
      </trkpt>
      <trkpt lat="48.697" lon="1.76534">
        <ele>181.19999694824</ele>
        <time>2015-01-25T12:19:10.000Z</time>
      </trkpt>
      <trkpt lat="48.69707" lon="1.76545">
        <ele>181.19999694824</ele>
        <time>2015-01-25T12:19:18.000Z</time>
      </trkpt>
      <trkpt lat="48.69711" lon="1.76552">
        <ele>181.19999694824</ele>
        <time>2015-01-25T12:19:24.000Z</time>
      </trkpt>
      <trkpt lat="48.69717" lon="1.76559">
        <ele>181.19999694824</ele>
        <time>2015-01-25T12:19:30.000Z</time>
      </trkpt>
      <trkpt lat="48.69724" lon="1.76572">
        <ele>181.19999694824</ele>
        <time>2015-01-25T12:19:38.000Z</time>
      </trkpt>
      <trkpt lat="48.69728" lon="1.76581">
        <ele>181.60000610352</ele>
        <time>2015-01-25T12:19:43.000Z</time>
      </trkpt>
      <trkpt lat="48.69738" lon="1.7659">
        <ele>182</ele>
        <time>2015-01-25T12:19:52.000Z</time>
      </trkpt>
      <trkpt lat="48.69739" lon="1.76593">
        <ele>182.19999694824</ele>
        <time>2015-01-25T12:19:54.000Z</time>
      </trkpt>
      <trkpt lat="48.69739" lon="1.76596">
        <ele>182.19999694824</ele>
        <time>2015-01-25T12:19:59.000Z</time>
      </trkpt>
      <trkpt lat="48.69743" lon="1.76604">
        <ele>182.39999389648</ele>
        <time>2015-01-25T12:21:12.000Z</time>
      </trkpt>
      <trkpt lat="48.69749" lon="1.76614">
        <ele>182.80000305176</ele>
        <time>2015-01-25T12:21:18.000Z</time>
      </trkpt>
      <trkpt lat="48.69757" lon="1.76623">
        <ele>183.19999694824</ele>
        <time>2015-01-25T12:21:25.000Z</time>
      </trkpt>
      <trkpt lat="48.69763" lon="1.76631">
        <ele>183.60000610352</ele>
        <time>2015-01-25T12:21:31.000Z</time>
      </trkpt>
      <trkpt lat="48.69771" lon="1.76644">
        <ele>184</ele>
        <time>2015-01-25T12:21:40.000Z</time>
      </trkpt>
      <trkpt lat="48.6978" lon="1.76652">
        <ele>184</ele>
        <time>2015-01-25T12:21:47.000Z</time>
      </trkpt>
      <trkpt lat="48.69788" lon="1.76661">
        <ele>184.19999694824</ele>
        <time>2015-01-25T12:21:54.000Z</time>
      </trkpt>
      <trkpt lat="48.69796" lon="1.76672">
        <ele>184.39999389648</ele>
        <time>2015-01-25T12:22:02.000Z</time>
      </trkpt>
      <trkpt lat="48.69805" lon="1.7668">
        <ele>184.60000610352</ele>
        <time>2015-01-25T12:22:09.000Z</time>
      </trkpt>
      <trkpt lat="48.69813" lon="1.76686">
        <ele>184.80000305176</ele>
        <time>2015-01-25T12:22:15.000Z</time>
      </trkpt>
      <trkpt lat="48.69821" lon="1.76692">
        <ele>185</ele>
        <time>2015-01-25T12:22:21.000Z</time>
      </trkpt>
      <trkpt lat="48.6983" lon="1.76699">
        <ele>185</ele>
        <time>2015-01-25T12:22:28.000Z</time>
      </trkpt>
      <trkpt lat="48.69838" lon="1.7671">
        <ele>185.39999389648</ele>
        <time>2015-01-25T12:22:36.000Z</time>
      </trkpt>
      <trkpt lat="48.69839" lon="1.76711">
        <ele>185.39999389648</ele>
        <time>2015-01-25T12:22:37.000Z</time>
      </trkpt>
      <trkpt lat="48.69844" lon="1.76716">
        <ele>185.39999389648</ele>
        <time>2015-01-25T12:22:42.000Z</time>
      </trkpt>
      <trkpt lat="48.69854" lon="1.76727">
        <ele>185.80000305176</ele>
        <time>2015-01-25T12:22:50.000Z</time>
      </trkpt>
      <trkpt lat="48.69856" lon="1.76729">
        <ele>185.80000305176</ele>
        <time>2015-01-25T12:22:51.000Z</time>
      </trkpt>
      <trkpt lat="48.69864" lon="1.76739">
        <ele>185.60000610352</ele>
        <time>2015-01-25T12:22:59.000Z</time>
      </trkpt>
      <trkpt lat="48.69872" lon="1.76751">
        <ele>185</ele>
        <time>2015-01-25T12:23:07.000Z</time>
      </trkpt>
      <trkpt lat="48.69875" lon="1.76754">
        <ele>184.80000305176</ele>
        <time>2015-01-25T12:23:10.000Z</time>
      </trkpt>
      <trkpt lat="48.69885" lon="1.76765">
        <ele>184.19999694824</ele>
        <time>2015-01-25T12:23:19.000Z</time>
      </trkpt>
      <trkpt lat="48.69892" lon="1.76774">
        <ele>183.80000305176</ele>
        <time>2015-01-25T12:23:26.000Z</time>
      </trkpt>
      <trkpt lat="48.699" lon="1.76782">
        <ele>183.19999694824</ele>
        <time>2015-01-25T12:23:33.000Z</time>
      </trkpt>
      <trkpt lat="48.69908" lon="1.76785">
        <ele>183</ele>
        <time>2015-01-25T12:23:39.000Z</time>
      </trkpt>
      <trkpt lat="48.69917" lon="1.76782">
        <ele>182.80000305176</ele>
        <time>2015-01-25T12:23:46.000Z</time>
      </trkpt>
      <trkpt lat="48.69922" lon="1.7678">
        <ele>182.80000305176</ele>
        <time>2015-01-25T12:23:51.000Z</time>
      </trkpt>
      <trkpt lat="48.69931" lon="1.76777">
        <ele>182.80000305176</ele>
        <time>2015-01-25T12:23:57.000Z</time>
      </trkpt>
      <trkpt lat="48.69944" lon="1.76777">
        <ele>182.80000305176</ele>
        <time>2015-01-25T12:24:05.000Z</time>
      </trkpt>
      <trkpt lat="48.69956" lon="1.76776">
        <ele>183.39999389648</ele>
        <time>2015-01-25T12:24:13.000Z</time>
      </trkpt>
      <trkpt lat="48.69968" lon="1.76777">
        <ele>183.80000305176</ele>
        <time>2015-01-25T12:24:22.000Z</time>
      </trkpt>
      <trkpt lat="48.69977" lon="1.76777">
        <ele>184</ele>
        <time>2015-01-25T12:24:28.000Z</time>
      </trkpt>
      <trkpt lat="48.69989" lon="1.76777">
        <ele>184.39999389648</ele>
        <time>2015-01-25T12:24:36.000Z</time>
      </trkpt>
      <trkpt lat="48.69996" lon="1.76779">
        <ele>184.39999389648</ele>
        <time>2015-01-25T12:24:42.000Z</time>
      </trkpt>
      <trkpt lat="48.7" lon="1.76781">
        <ele>184.39999389648</ele>
        <time>2015-01-25T12:24:45.000Z</time>
      </trkpt>
      <trkpt lat="48.70011" lon="1.76784">
        <ele>184.60000610352</ele>
        <time>2015-01-25T12:24:54.000Z</time>
      </trkpt>
      <trkpt lat="48.70016" lon="1.76785">
        <ele>184.80000305176</ele>
        <time>2015-01-25T12:24:59.000Z</time>
      </trkpt>
      <trkpt lat="48.70023" lon="1.76787">
        <ele>184.80000305176</ele>
        <time>2015-01-25T12:25:06.000Z</time>
      </trkpt>
      <trkpt lat="48.70031" lon="1.76789">
        <ele>184.80000305176</ele>
        <time>2015-01-25T12:25:12.000Z</time>
      </trkpt>
      <trkpt lat="48.70032" lon="1.7679">
        <ele>185</ele>
        <time>2015-01-25T12:25:13.000Z</time>
      </trkpt>
      <trkpt lat="48.70034" lon="1.7679">
        <ele>185</ele>
        <time>2015-01-25T12:25:15.000Z</time>
      </trkpt>
      <trkpt lat="48.70043" lon="1.76791">
        <ele>185</ele>
        <time>2015-01-25T12:25:21.000Z</time>
      </trkpt>
      <trkpt lat="48.70056" lon="1.76792">
        <ele>185.19999694824</ele>
        <time>2015-01-25T12:25:30.000Z</time>
      </trkpt>
      <trkpt lat="48.70066" lon="1.76792">
        <ele>185.19999694824</ele>
        <time>2015-01-25T12:25:36.000Z</time>
      </trkpt>
      <trkpt lat="48.70072" lon="1.7679">
        <ele>185.39999389648</ele>
        <time>2015-01-25T12:25:41.000Z</time>
      </trkpt>
      <trkpt lat="48.70078" lon="1.76789">
        <ele>185.39999389648</ele>
        <time>2015-01-25T12:25:46.000Z</time>
      </trkpt>
      <trkpt lat="48.70087" lon="1.76788">
        <ele>185.39999389648</ele>
        <time>2015-01-25T12:25:52.000Z</time>
      </trkpt>
      <trkpt lat="48.70098" lon="1.76785">
        <ele>185.39999389648</ele>
        <time>2015-01-25T12:25:58.000Z</time>
      </trkpt>
      <trkpt lat="48.70111" lon="1.76783">
        <ele>185</ele>
        <time>2015-01-25T12:26:05.000Z</time>
      </trkpt>
      <trkpt lat="48.70118" lon="1.76782">
        <ele>184.60000610352</ele>
        <time>2015-01-25T12:26:10.000Z</time>
      </trkpt>
      <trkpt lat="48.70132" lon="1.7678">
        <ele>183.80000305176</ele>
        <time>2015-01-25T12:26:21.000Z</time>
      </trkpt>
      <trkpt lat="48.70142" lon="1.76779">
        <ele>183.19999694824</ele>
        <time>2015-01-25T12:26:29.000Z</time>
      </trkpt>
      <trkpt lat="48.70147" lon="1.76777">
        <ele>183</ele>
        <time>2015-01-25T12:26:34.000Z</time>
      </trkpt>
      <trkpt lat="48.70154" lon="1.76771">
        <ele>182.80000305176</ele>
        <time>2015-01-25T12:26:42.000Z</time>
      </trkpt>
      <trkpt lat="48.70155" lon="1.7677">
        <ele>182.80000305176</ele>
        <time>2015-01-25T12:26:43.000Z</time>
      </trkpt>
      <trkpt lat="48.70159" lon="1.76764">
        <ele>182.80000305176</ele>
        <time>2015-01-25T12:26:49.000Z</time>
      </trkpt>
      <trkpt lat="48.70167" lon="1.7676">
        <ele>182.39999389648</ele>
        <time>2015-01-25T12:26:54.000Z</time>
      </trkpt>
      <trkpt lat="48.70178" lon="1.7675">
        <ele>182.19999694824</ele>
        <time>2015-01-25T12:27:01.000Z</time>
      </trkpt>
      <trkpt lat="48.70187" lon="1.76739">
        <ele>182</ele>
        <time>2015-01-25T12:27:09.000Z</time>
      </trkpt>
      <trkpt lat="48.70191" lon="1.76726">
        <ele>182.19999694824</ele>
        <time>2015-01-25T12:27:18.000Z</time>
      </trkpt>
      <trkpt lat="48.70199" lon="1.7672">
        <ele>182.19999694824</ele>
        <time>2015-01-25T12:27:24.000Z</time>
      </trkpt>
      <trkpt lat="48.7021" lon="1.76711">
        <ele>182</ele>
        <time>2015-01-25T12:27:33.000Z</time>
      </trkpt>
      <trkpt lat="48.7022" lon="1.76704">
        <ele>182</ele>
        <time>2015-01-25T12:27:41.000Z</time>
      </trkpt>
      <trkpt lat="48.7023" lon="1.76696">
        <ele>182</ele>
        <time>2015-01-25T12:27:50.000Z</time>
      </trkpt>
      <trkpt lat="48.70238" lon="1.76692">
        <ele>181.60000610352</ele>
        <time>2015-01-25T12:27:56.000Z</time>
      </trkpt>
      <trkpt lat="48.70247" lon="1.76688">
        <ele>181</ele>
        <time>2015-01-25T12:28:03.000Z</time>
      </trkpt>
      <trkpt lat="48.70251" lon="1.76685">
        <ele>181</ele>
        <time>2015-01-25T12:28:07.000Z</time>
      </trkpt>
      <trkpt lat="48.70253" lon="1.76684">
        <ele>180.80000305176</ele>
        <time>2015-01-25T12:28:09.000Z</time>
      </trkpt>
      <trkpt lat="48.70263" lon="1.76682">
        <ele>180.39999389648</ele>
        <time>2015-01-25T12:28:18.000Z</time>
      </trkpt>
      <trkpt lat="48.70274" lon="1.76676">
        <ele>180</ele>
        <time>2015-01-25T12:28:27.000Z</time>
      </trkpt>
      <trkpt lat="48.70282" lon="1.76673">
        <ele>179.80000305176</ele>
        <time>2015-01-25T12:28:34.000Z</time>
      </trkpt>
      <trkpt lat="48.70289" lon="1.76668">
        <ele>179.60000610352</ele>
        <time>2015-01-25T12:28:39.000Z</time>
      </trkpt>
      <trkpt lat="48.703" lon="1.76662">
        <ele>179.19999694824</ele>
        <time>2015-01-25T12:28:47.000Z</time>
      </trkpt>
      <trkpt lat="48.70311" lon="1.76653">
        <ele>179</ele>
        <time>2015-01-25T12:28:55.000Z</time>
      </trkpt>
      <trkpt lat="48.70317" lon="1.76648">
        <ele>178.80000305176</ele>
        <time>2015-01-25T12:29:00.000Z</time>
      </trkpt>
      <trkpt lat="48.70319" lon="1.76647">
        <ele>178.80000305176</ele>
        <time>2015-01-25T12:29:03.000Z</time>
      </trkpt>
      <trkpt lat="48.70324" lon="1.76643">
        <ele>178.80000305176</ele>
        <time>2015-01-25T12:29:13.000Z</time>
      </trkpt>
      <trkpt lat="48.70331" lon="1.76635">
        <ele>178.60000610352</ele>
        <time>2015-01-25T12:29:19.000Z</time>
      </trkpt>
      <trkpt lat="48.70331" lon="1.76634">
        <ele>178.60000610352</ele>
        <time>2015-01-25T12:29:20.000Z</time>
      </trkpt>
      <trkpt lat="48.70336" lon="1.76631">
        <ele>178.39999389648</ele>
        <time>2015-01-25T12:29:25.000Z</time>
      </trkpt>
      <trkpt lat="48.7034" lon="1.76626">
        <ele>178.39999389648</ele>
        <time>2015-01-25T12:29:30.000Z</time>
      </trkpt>
      <trkpt lat="48.70343" lon="1.76623">
        <ele>178.19999694824</ele>
        <time>2015-01-25T12:29:33.000Z</time>
      </trkpt>
      <trkpt lat="48.70352" lon="1.76617">
        <ele>178</ele>
        <time>2015-01-25T12:29:39.000Z</time>
      </trkpt>
      <trkpt lat="48.7036" lon="1.76613">
        <ele>178.19999694824</ele>
        <time>2015-01-25T12:29:45.000Z</time>
      </trkpt>
      <trkpt lat="48.70375" lon="1.76606">
        <ele>178.60000610352</ele>
        <time>2015-01-25T12:29:54.000Z</time>
      </trkpt>
      <trkpt lat="48.70384" lon="1.766">
        <ele>178.80000305176</ele>
        <time>2015-01-25T12:30:02.000Z</time>
      </trkpt>
      <trkpt lat="48.70393" lon="1.76595">
        <ele>179.19999694824</ele>
        <time>2015-01-25T12:30:10.000Z</time>
      </trkpt>
      <trkpt lat="48.70401" lon="1.76591">
        <ele>179.39999389648</ele>
        <time>2015-01-25T12:30:17.000Z</time>
      </trkpt>
      <trkpt lat="48.70405" lon="1.76589">
        <ele>179.60000610352</ele>
        <time>2015-01-25T12:30:19.000Z</time>
      </trkpt>
      <trkpt lat="48.70416" lon="1.76583">
        <ele>180.19999694824</ele>
        <time>2015-01-25T12:30:26.000Z</time>
      </trkpt>
      <trkpt lat="48.70425" lon="1.76579">
        <ele>180.39999389648</ele>
        <time>2015-01-25T12:30:33.000Z</time>
      </trkpt>
      <trkpt lat="48.7043" lon="1.7657">
        <ele>180.80000305176</ele>
        <time>2015-01-25T12:30:38.000Z</time>
      </trkpt>
      <trkpt lat="48.70436" lon="1.76555">
        <ele>181.19999694824</ele>
        <time>2015-01-25T12:30:46.000Z</time>
      </trkpt>
      <trkpt lat="48.70439" lon="1.76541">
        <ele>181.19999694824</ele>
        <time>2015-01-25T12:30:52.000Z</time>
      </trkpt>
      <trkpt lat="48.70443" lon="1.76531">
        <ele>181.19999694824</ele>
        <time>2015-01-25T12:30:59.000Z</time>
      </trkpt>
      <trkpt lat="48.70446" lon="1.76523">
        <ele>181.19999694824</ele>
        <time>2015-01-25T12:31:04.000Z</time>
      </trkpt>
      <trkpt lat="48.70448" lon="1.76511">
        <ele>181.19999694824</ele>
        <time>2015-01-25T12:31:11.000Z</time>
      </trkpt>
      <trkpt lat="48.70449" lon="1.76509">
        <ele>181.19999694824</ele>
        <time>2015-01-25T12:31:12.000Z</time>
      </trkpt>
      <trkpt lat="48.70452" lon="1.76496">
        <ele>181</ele>
        <time>2015-01-25T12:31:21.000Z</time>
      </trkpt>
      <trkpt lat="48.70454" lon="1.76487">
        <ele>180.80000305176</ele>
        <time>2015-01-25T12:31:26.000Z</time>
      </trkpt>
      <trkpt lat="48.70459" lon="1.76471">
        <ele>179.60000610352</ele>
        <time>2015-01-25T12:31:35.000Z</time>
      </trkpt>
      <trkpt lat="48.7046" lon="1.76468">
        <ele>179.39999389648</ele>
        <time>2015-01-25T12:31:37.000Z</time>
      </trkpt>
      <trkpt lat="48.70461" lon="1.76454">
        <ele>178.60000610352</ele>
        <time>2015-01-25T12:31:46.000Z</time>
      </trkpt>
      <trkpt lat="48.70461" lon="1.76449">
        <ele>178.39999389648</ele>
        <time>2015-01-25T12:31:49.000Z</time>
      </trkpt>
      <trkpt lat="48.70462" lon="1.76434">
        <ele>177.60000610352</ele>
        <time>2015-01-25T12:31:55.000Z</time>
      </trkpt>
      <trkpt lat="48.70462" lon="1.76422">
        <ele>177.39999389648</ele>
        <time>2015-01-25T12:32:00.000Z</time>
      </trkpt>
      <trkpt lat="48.7046" lon="1.76415">
        <ele>177.19999694824</ele>
        <time>2015-01-25T12:32:03.000Z</time>
      </trkpt>
      <trkpt lat="48.70459" lon="1.76397">
        <ele>176.80000305176</ele>
        <time>2015-01-25T12:32:11.000Z</time>
      </trkpt>
      <trkpt lat="48.70458" lon="1.76383">
        <ele>176.19999694824</ele>
        <time>2015-01-25T12:32:17.000Z</time>
      </trkpt>
      <trkpt lat="48.70456" lon="1.76373">
        <ele>175.80000305176</ele>
        <time>2015-01-25T12:32:21.000Z</time>
      </trkpt>
      <trkpt lat="48.70455" lon="1.76364">
        <ele>175.39999389648</ele>
        <time>2015-01-25T12:32:26.000Z</time>
      </trkpt>
      <trkpt lat="48.70455" lon="1.76353">
        <ele>174.80000305176</ele>
        <time>2015-01-25T12:32:31.000Z</time>
      </trkpt>
      <trkpt lat="48.70454" lon="1.76344">
        <ele>174.39999389648</ele>
        <time>2015-01-25T12:32:35.000Z</time>
      </trkpt>
      <trkpt lat="48.7045" lon="1.76326">
        <ele>173.80000305176</ele>
        <time>2015-01-25T12:32:42.000Z</time>
      </trkpt>
      <trkpt lat="48.7045" lon="1.76308">
        <ele>173.60000610352</ele>
        <time>2015-01-25T12:32:50.000Z</time>
      </trkpt>
      <trkpt lat="48.70451" lon="1.76301">
        <ele>173.39999389648</ele>
        <time>2015-01-25T12:32:54.000Z</time>
      </trkpt>
      <trkpt lat="48.70453" lon="1.76294">
        <ele>173.39999389648</ele>
        <time>2015-01-25T12:32:57.000Z</time>
      </trkpt>
      <trkpt lat="48.70455" lon="1.76283">
        <ele>173.39999389648</ele>
        <time>2015-01-25T12:33:03.000Z</time>
      </trkpt>
      <trkpt lat="48.70458" lon="1.76275">
        <ele>173.19999694824</ele>
        <time>2015-01-25T12:33:08.000Z</time>
      </trkpt>
      <trkpt lat="48.70461" lon="1.76257">
        <ele>173</ele>
        <time>2015-01-25T12:33:15.000Z</time>
      </trkpt>
      <trkpt lat="48.70463" lon="1.76236">
        <ele>172.39999389648</ele>
        <time>2015-01-25T12:33:24.000Z</time>
      </trkpt>
      <trkpt lat="48.70464" lon="1.76222">
        <ele>172.80000305176</ele>
        <time>2015-01-25T12:33:31.000Z</time>
      </trkpt>
      <trkpt lat="48.70462" lon="1.76206">
        <ele>173.19999694824</ele>
        <time>2015-01-25T12:33:38.000Z</time>
      </trkpt>
      <trkpt lat="48.70461" lon="1.76191">
        <ele>173.60000610352</ele>
        <time>2015-01-25T12:33:44.000Z</time>
      </trkpt>
      <trkpt lat="48.70458" lon="1.76176">
        <ele>174.19999694824</ele>
        <time>2015-01-25T12:33:51.000Z</time>
      </trkpt>
      <trkpt lat="48.70456" lon="1.76162">
        <ele>174.80000305176</ele>
        <time>2015-01-25T12:33:57.000Z</time>
      </trkpt>
      <trkpt lat="48.70455" lon="1.76146">
        <ele>175.19999694824</ele>
        <time>2015-01-25T12:34:04.000Z</time>
      </trkpt>
      <trkpt lat="48.70454" lon="1.76129">
        <ele>175.39999389648</ele>
        <time>2015-01-25T12:34:12.000Z</time>
      </trkpt>
      <trkpt lat="48.70455" lon="1.76115">
        <ele>175.60000610352</ele>
        <time>2015-01-25T12:34:20.000Z</time>
      </trkpt>
      <trkpt lat="48.7046" lon="1.76102">
        <ele>175.60000610352</ele>
        <time>2015-01-25T12:34:27.000Z</time>
      </trkpt>
      <trkpt lat="48.70466" lon="1.76086">
        <ele>175.39999389648</ele>
        <time>2015-01-25T12:34:35.000Z</time>
      </trkpt>
      <trkpt lat="48.70469" lon="1.76072">
        <ele>175.39999389648</ele>
        <time>2015-01-25T12:34:43.000Z</time>
      </trkpt>
      <trkpt lat="48.70473" lon="1.76056">
        <ele>176</ele>
        <time>2015-01-25T12:34:51.000Z</time>
      </trkpt>
      <trkpt lat="48.70474" lon="1.76052">
        <ele>176.19999694824</ele>
        <time>2015-01-25T12:34:54.000Z</time>
      </trkpt>
      <trkpt lat="48.70476" lon="1.76037">
        <ele>176.80000305176</ele>
        <time>2015-01-25T12:35:01.000Z</time>
      </trkpt>
      <trkpt lat="48.70477" lon="1.76022">
        <ele>177.39999389648</ele>
        <time>2015-01-25T12:35:08.000Z</time>
      </trkpt>
      <trkpt lat="48.70481" lon="1.76006">
        <ele>178.39999389648</ele>
        <time>2015-01-25T12:35:16.000Z</time>
      </trkpt>
      <trkpt lat="48.70484" lon="1.75997">
        <ele>178.80000305176</ele>
        <time>2015-01-25T12:35:21.000Z</time>
      </trkpt>
      <trkpt lat="48.70489" lon="1.75985">
        <ele>179.19999694824</ele>
        <time>2015-01-25T12:35:28.000Z</time>
      </trkpt>
      <trkpt lat="48.70495" lon="1.75973">
        <ele>179</ele>
        <time>2015-01-25T12:35:36.000Z</time>
      </trkpt>
      <trkpt lat="48.70502" lon="1.75961">
        <ele>179.19999694824</ele>
        <time>2015-01-25T12:35:43.000Z</time>
      </trkpt>
      <trkpt lat="48.70509" lon="1.75947">
        <ele>180</ele>
        <time>2015-01-25T12:35:52.000Z</time>
      </trkpt>
      <trkpt lat="48.70514" lon="1.75938">
        <ele>180.39999389648</ele>
        <time>2015-01-25T12:35:58.000Z</time>
      </trkpt>
      <trkpt lat="48.70522" lon="1.75926">
        <ele>180.80000305176</ele>
        <time>2015-01-25T12:36:06.000Z</time>
      </trkpt>
      <trkpt lat="48.70527" lon="1.75916">
        <ele>181</ele>
        <time>2015-01-25T12:36:13.000Z</time>
      </trkpt>
      <trkpt lat="48.70527" lon="1.75916">
        <ele>181</ele>
        <time>2015-01-25T12:36:15.000Z</time>
      </trkpt>
      <trkpt lat="48.70538" lon="1.75895">
        <ele>181</ele>
        <time>2015-01-25T12:37:31.000Z</time>
      </trkpt>
      <trkpt lat="48.7054" lon="1.75892">
        <ele>180.80000305176</ele>
        <time>2015-01-25T12:37:32.000Z</time>
      </trkpt>
      <trkpt lat="48.70546" lon="1.75885">
        <ele>180.60000610352</ele>
        <time>2015-01-25T12:37:39.000Z</time>
      </trkpt>
      <trkpt lat="48.70549" lon="1.75875">
        <ele>180.60000610352</ele>
        <time>2015-01-25T12:37:47.000Z</time>
      </trkpt>
      <trkpt lat="48.70551" lon="1.75869">
        <ele>180.60000610352</ele>
        <time>2015-01-25T12:37:52.000Z</time>
      </trkpt>
      <trkpt lat="48.70557" lon="1.75856">
        <ele>180.39999389648</ele>
        <time>2015-01-25T12:38:00.000Z</time>
      </trkpt>
      <trkpt lat="48.70561" lon="1.75846">
        <ele>179.80000305176</ele>
        <time>2015-01-25T12:38:06.000Z</time>
      </trkpt>
      <trkpt lat="48.70563" lon="1.75842">
        <ele>179.60000610352</ele>
        <time>2015-01-25T12:38:08.000Z</time>
      </trkpt>
      <trkpt lat="48.70566" lon="1.75835">
        <ele>179.19999694824</ele>
        <time>2015-01-25T12:38:12.000Z</time>
      </trkpt>
      <trkpt lat="48.70566" lon="1.7583">
        <ele>179.19999694824</ele>
        <time>2015-01-25T12:38:18.000Z</time>
      </trkpt>
      <trkpt lat="48.70575" lon="1.75807">
        <ele>178.19999694824</ele>
        <time>2015-01-25T12:39:08.000Z</time>
      </trkpt>
      <trkpt lat="48.70577" lon="1.75802">
        <ele>178</ele>
        <time>2015-01-25T12:39:12.000Z</time>
      </trkpt>
      <trkpt lat="48.70581" lon="1.75795">
        <ele>177.80000305176</ele>
        <time>2015-01-25T12:39:18.000Z</time>
      </trkpt>
      <trkpt lat="48.70584" lon="1.75792">
        <ele>177.80000305176</ele>
        <time>2015-01-25T12:39:21.000Z</time>
      </trkpt>
      <trkpt lat="48.70589" lon="1.75783">
        <ele>177.80000305176</ele>
        <time>2015-01-25T12:39:29.000Z</time>
      </trkpt>
      <trkpt lat="48.70595" lon="1.75774">
        <ele>177.80000305176</ele>
        <time>2015-01-25T12:39:36.000Z</time>
      </trkpt>
      <trkpt lat="48.70601" lon="1.75762">
        <ele>178</ele>
        <time>2015-01-25T12:39:44.000Z</time>
      </trkpt>
      <trkpt lat="48.70601" lon="1.7576">
        <ele>178</ele>
        <time>2015-01-25T12:39:45.000Z</time>
      </trkpt>
      <trkpt lat="48.70605" lon="1.75756">
        <ele>178</ele>
        <time>2015-01-25T12:39:49.000Z</time>
      </trkpt>
      <trkpt lat="48.70611" lon="1.75745">
        <ele>178.39999389648</ele>
        <time>2015-01-25T12:39:59.000Z</time>
      </trkpt>
      <trkpt lat="48.70613" lon="1.75744">
        <ele>178.39999389648</ele>
        <time>2015-01-25T12:40:03.000Z</time>
      </trkpt>
      <trkpt lat="48.70617" lon="1.75731">
        <ele>178.60000610352</ele>
        <time>2015-01-25T12:40:17.000Z</time>
      </trkpt>
      <trkpt lat="48.70626" lon="1.75722">
        <ele>178.80000305176</ele>
        <time>2015-01-25T12:40:24.000Z</time>
      </trkpt>
      <trkpt lat="48.70628" lon="1.7572">
        <ele>178.80000305176</ele>
        <time>2015-01-25T12:40:26.000Z</time>
      </trkpt>
      <trkpt lat="48.70629" lon="1.75718">
        <ele>178.80000305176</ele>
        <time>2015-01-25T12:40:28.000Z</time>
      </trkpt>
      <trkpt lat="48.70636" lon="1.75708">
        <ele>179.19999694824</ele>
        <time>2015-01-25T12:40:36.000Z</time>
      </trkpt>
      <trkpt lat="48.70638" lon="1.75704">
        <ele>179.39999389648</ele>
        <time>2015-01-25T12:40:41.000Z</time>
      </trkpt>
      <trkpt lat="48.70639" lon="1.75696">
        <ele>179.80000305176</ele>
        <time>2015-01-25T12:40:46.000Z</time>
      </trkpt>
      <trkpt lat="48.7064" lon="1.75692">
        <ele>180.19999694824</ele>
        <time>2015-01-25T12:40:49.000Z</time>
      </trkpt>
      <trkpt lat="48.7064" lon="1.7568">
        <ele>180.19999694824</ele>
        <time>2015-01-25T12:40:55.000Z</time>
      </trkpt>
      <trkpt lat="48.70639" lon="1.75669">
        <ele>180.60000610352</ele>
        <time>2015-01-25T12:41:01.000Z</time>
      </trkpt>
      <trkpt lat="48.70638" lon="1.75662">
        <ele>180.80000305176</ele>
        <time>2015-01-25T12:41:05.000Z</time>
      </trkpt>
      <trkpt lat="48.70638" lon="1.75649">
        <ele>180.60000610352</ele>
        <time>2015-01-25T12:41:11.000Z</time>
      </trkpt>
      <trkpt lat="48.70641" lon="1.75636">
        <ele>180.19999694824</ele>
        <time>2015-01-25T12:41:17.000Z</time>
      </trkpt>
      <trkpt lat="48.70642" lon="1.75629">
        <ele>179.80000305176</ele>
        <time>2015-01-25T12:41:21.000Z</time>
      </trkpt>
      <trkpt lat="48.70645" lon="1.75619">
        <ele>179.19999694824</ele>
        <time>2015-01-25T12:41:27.000Z</time>
      </trkpt>
      <trkpt lat="48.7065" lon="1.75607">
        <ele>178.60000610352</ele>
        <time>2015-01-25T12:41:34.000Z</time>
      </trkpt>
      <trkpt lat="48.70656" lon="1.75593">
        <ele>178</ele>
        <time>2015-01-25T12:41:42.000Z</time>
      </trkpt>
      <trkpt lat="48.7066" lon="1.75584">
        <ele>177.60000610352</ele>
        <time>2015-01-25T12:41:47.000Z</time>
      </trkpt>
      <trkpt lat="48.70665" lon="1.75572">
        <ele>177</ele>
        <time>2015-01-25T12:41:54.000Z</time>
      </trkpt>
      <trkpt lat="48.7067" lon="1.75562">
        <ele>175.60000610352</ele>
        <time>2015-01-25T12:42:00.000Z</time>
      </trkpt>
      <trkpt lat="48.70672" lon="1.75552">
        <ele>174.80000305176</ele>
        <time>2015-01-25T12:42:05.000Z</time>
      </trkpt>
      <trkpt lat="48.70675" lon="1.75543">
        <ele>174.39999389648</ele>
        <time>2015-01-25T12:42:10.000Z</time>
      </trkpt>
      <trkpt lat="48.70681" lon="1.75534">
        <ele>174.19999694824</ele>
        <time>2015-01-25T12:42:16.000Z</time>
      </trkpt>
      <trkpt lat="48.70685" lon="1.75525">
        <ele>174</ele>
        <time>2015-01-25T12:42:22.000Z</time>
      </trkpt>
      <trkpt lat="48.70691" lon="1.75514">
        <ele>173.39999389648</ele>
        <time>2015-01-25T12:42:29.000Z</time>
      </trkpt>
      <trkpt lat="48.70693" lon="1.75509">
        <ele>173.19999694824</ele>
        <time>2015-01-25T12:42:32.000Z</time>
      </trkpt>
      <trkpt lat="48.70695" lon="1.75501">
        <ele>173</ele>
        <time>2015-01-25T12:42:37.000Z</time>
      </trkpt>
      <trkpt lat="48.70698" lon="1.75489">
        <ele>172.80000305176</ele>
        <time>2015-01-25T12:42:43.000Z</time>
      </trkpt>
      <trkpt lat="48.70698" lon="1.7548">
        <ele>172.60000610352</ele>
        <time>2015-01-25T12:42:49.000Z</time>
      </trkpt>
      <trkpt lat="48.70698" lon="1.7548">
        <ele>172.60000610352</ele>
        <time>2015-01-25T12:42:51.000Z</time>
      </trkpt>
    </trkseg>
  </trk>
</gpx>